<?xml version="1.0" encoding="UTF-8" standalone="no" ?>
<gpx xmlns="http://www.topografix.com/GPX/1/1" xmlns:xsi="http://www.w3.org/2001/XMLSchema-instance" xsi:schemaLocation="http://www.topografix.com/GPX/1/1 http://www.topografix.com/GPX/1/1/gpx.xsd" version="1.1" creator="VisuGPX - https://www.visugpx.com">
  <metadata>
    <name>Soubès - chapelle Saint-Vincent</name>
    <desc><![CDATA[2015-02 - Soubès - cirque bout du monde - chapelle Saint-Vincent

[b]album[/b] : [url]https://goo.gl/photos/r9RkiLmipHmAxiw59[/url]
[img]https://4.bp.blogspot.com/-PBXsLEiSQRk/WNFLjDmGKwI/AAAAAAAAQ8g/wHqm7RlewZwK_2cCiMD_0IMM4USzGHNfACLcB/s1600/2016-02_Soubes_i.JPG[/img]
[b]Idées de randonnées dans la même région[/b]
Parcours : [url]https://www.visugpx.com/membres/24856/causses/larzac/[/url]
Photos : [url]https://jcvertygo.blogspot.com/p/larzac.html[/url]]]></desc>
  </metadata>
  <trk>
    <name><![CDATA[Soubès - chapelle Saint-Vincent_1]]></name>
    <trkseg>
      <trkpt lat="43.76643" lon="3.34457">
        <ele>232</ele>
        <time>2016-02-21T10:31:29Z</time>
      </trkpt>
      <trkpt lat="43.76649" lon="3.34455">
        <ele>232</ele>
        <time>2016-02-21T10:31:34Z</time>
      </trkpt>
      <trkpt lat="43.76656" lon="3.34456">
        <ele>230.97550459585</ele>
        <time>2016-02-21T10:31:39Z</time>
      </trkpt>
      <trkpt lat="43.76662" lon="3.34457">
        <ele>230.97550459585</ele>
        <time>2016-02-21T10:31:44Z</time>
      </trkpt>
      <trkpt lat="43.76668" lon="3.34449">
        <ele>232.12562386601</ele>
        <time>2016-02-21T10:31:49Z</time>
      </trkpt>
      <trkpt lat="43.7667" lon="3.34447">
        <ele>232.12562386601</ele>
        <time>2016-02-21T10:32:00Z</time>
      </trkpt>
      <trkpt lat="43.76684" lon="3.34457">
        <ele>233.5593885968</ele>
        <time>2016-02-21T10:32:29Z</time>
      </trkpt>
      <trkpt lat="43.7669" lon="3.34646">
        <ele>237.50856869546</ele>
        <time>2016-02-21T10:34:24Z</time>
      </trkpt>
      <trkpt lat="43.76704" lon="3.34654">
        <ele>240.85148191138</ele>
        <time>2016-02-21T10:37:03Z</time>
      </trkpt>
      <trkpt lat="43.76707" lon="3.34659">
        <ele>240.85148191138</ele>
        <time>2016-02-21T10:37:05Z</time>
      </trkpt>
      <trkpt lat="43.7671" lon="3.34657">
        <ele>240.85148191138</ele>
        <time>2016-02-21T10:37:36Z</time>
      </trkpt>
      <trkpt lat="43.76695" lon="3.34645">
        <ele>243.44150066401</ele>
        <time>2016-02-21T10:37:46Z</time>
      </trkpt>
      <trkpt lat="43.76707" lon="3.34713">
        <ele>245.24733296566</ele>
        <time>2016-02-21T10:38:28Z</time>
      </trkpt>
      <trkpt lat="43.76706" lon="3.34713">
        <ele>245.24733296566</ele>
        <time>2016-02-21T10:38:29Z</time>
      </trkpt>
      <trkpt lat="43.7672" lon="3.34753">
        <ele>246.95816870965</ele>
        <time>2016-02-21T10:39:24Z</time>
      </trkpt>
      <trkpt lat="43.76723" lon="3.34761">
        <ele>246.95816870965</ele>
        <time>2016-02-21T10:39:29Z</time>
      </trkpt>
      <trkpt lat="43.76726" lon="3.34769">
        <ele>248.14794128618</ele>
        <time>2016-02-21T10:39:40Z</time>
      </trkpt>
      <trkpt lat="43.76728" lon="3.34777">
        <ele>248.14794128618</ele>
        <time>2016-02-21T10:39:57Z</time>
      </trkpt>
      <trkpt lat="43.76734" lon="3.34809">
        <ele>248.71083363218</ele>
        <time>2016-02-21T10:40:05Z</time>
      </trkpt>
      <trkpt lat="43.76757" lon="3.3495">
        <ele>251.0611509326</ele>
        <time>2016-02-21T10:41:19Z</time>
      </trkpt>
      <trkpt lat="43.76758" lon="3.34958">
        <ele>251.0611509326</ele>
        <time>2016-02-21T10:41:24Z</time>
      </trkpt>
      <trkpt lat="43.7676" lon="3.34965">
        <ele>252.9133609356</ele>
        <time>2016-02-21T10:41:29Z</time>
      </trkpt>
      <trkpt lat="43.76762" lon="3.34974">
        <ele>252.9133609356</ele>
        <time>2016-02-21T10:41:34Z</time>
      </trkpt>
      <trkpt lat="43.76764" lon="3.34981">
        <ele>254.44226344655</ele>
        <time>2016-02-21T10:41:39Z</time>
      </trkpt>
      <trkpt lat="43.76767" lon="3.34989">
        <ele>254.44226344655</ele>
        <time>2016-02-21T10:41:44Z</time>
      </trkpt>
      <trkpt lat="43.76771" lon="3.34997">
        <ele>255.71357404619</ele>
        <time>2016-02-21T10:41:49Z</time>
      </trkpt>
      <trkpt lat="43.76773" lon="3.35005">
        <ele>255.71357404619</ele>
        <time>2016-02-21T10:41:54Z</time>
      </trkpt>
      <trkpt lat="43.76776" lon="3.35012">
        <ele>256.57599680989</ele>
        <time>2016-02-21T10:41:59Z</time>
      </trkpt>
      <trkpt lat="43.76779" lon="3.3502">
        <ele>256.57599680989</ele>
        <time>2016-02-21T10:42:04Z</time>
      </trkpt>
      <trkpt lat="43.76782" lon="3.35026">
        <ele>257.12985018762</ele>
        <time>2016-02-21T10:42:09Z</time>
      </trkpt>
      <trkpt lat="43.76786" lon="3.35034">
        <ele>257.12985018762</ele>
        <time>2016-02-21T10:42:14Z</time>
      </trkpt>
      <trkpt lat="43.76788" lon="3.35041">
        <ele>257.4358020953</ele>
        <time>2016-02-21T10:42:19Z</time>
      </trkpt>
      <trkpt lat="43.76791" lon="3.35047">
        <ele>257.4358020953</ele>
        <time>2016-02-21T10:42:24Z</time>
      </trkpt>
      <trkpt lat="43.76795" lon="3.35054">
        <ele>257.41999441725</ele>
        <time>2016-02-21T10:42:29Z</time>
      </trkpt>
      <trkpt lat="43.76798" lon="3.35062">
        <ele>257.41999441725</ele>
        <time>2016-02-21T10:42:34Z</time>
      </trkpt>
      <trkpt lat="43.76801" lon="3.35068">
        <ele>257.2098813206</ele>
        <time>2016-02-21T10:42:39Z</time>
      </trkpt>
      <trkpt lat="43.76806" lon="3.35075">
        <ele>257.2098813206</ele>
        <time>2016-02-21T10:42:44Z</time>
      </trkpt>
      <trkpt lat="43.76812" lon="3.35081">
        <ele>257.01060545218</ele>
        <time>2016-02-21T10:42:49Z</time>
      </trkpt>
      <trkpt lat="43.76817" lon="3.35088">
        <ele>257.01060545218</ele>
        <time>2016-02-21T10:42:54Z</time>
      </trkpt>
      <trkpt lat="43.76819" lon="3.35092">
        <ele>257.13779897723</ele>
        <time>2016-02-21T10:43:20Z</time>
      </trkpt>
      <trkpt lat="43.76825" lon="3.35099">
        <ele>257.13779897723</ele>
        <time>2016-02-21T10:43:45Z</time>
      </trkpt>
      <trkpt lat="43.7683" lon="3.351">
        <ele>257.80196160296</ele>
        <time>2016-02-21T10:43:49Z</time>
      </trkpt>
      <trkpt lat="43.76847" lon="3.35105">
        <ele>258.43421042365</ele>
        <time>2016-02-21T10:44:04Z</time>
      </trkpt>
      <trkpt lat="43.76852" lon="3.35105">
        <ele>258.43421042365</ele>
        <time>2016-02-21T10:44:09Z</time>
      </trkpt>
      <trkpt lat="43.76863" lon="3.35107">
        <ele>259.34927695201</ele>
        <time>2016-02-21T10:44:19Z</time>
      </trkpt>
      <trkpt lat="43.76869" lon="3.35108">
        <ele>259.34927695201</ele>
        <time>2016-02-21T10:44:24Z</time>
      </trkpt>
      <trkpt lat="43.76875" lon="3.35121">
        <ele>260.85167404643</ele>
        <time>2016-02-21T10:44:34Z</time>
      </trkpt>
      <trkpt lat="43.76878" lon="3.35127">
        <ele>260.85167404643</ele>
        <time>2016-02-21T10:44:39Z</time>
      </trkpt>
      <trkpt lat="43.76888" lon="3.35155">
        <ele>263.38281174108</ele>
        <time>2016-02-21T10:45:02Z</time>
      </trkpt>
      <trkpt lat="43.76888" lon="3.35158">
        <ele>263.38281174108</ele>
        <time>2016-02-21T10:45:02Z</time>
      </trkpt>
      <trkpt lat="43.76887" lon="3.35161">
        <ele>263.38281174108</ele>
        <time>2016-02-21T10:45:09Z</time>
      </trkpt>
      <trkpt lat="43.76887" lon="3.35169">
        <ele>265.8547929151</ele>
        <time>2016-02-21T10:45:09Z</time>
      </trkpt>
      <trkpt lat="43.76887" lon="3.35185">
        <ele>268.28673706372</ele>
        <time>2016-02-21T10:45:26Z</time>
      </trkpt>
      <trkpt lat="43.76885" lon="3.35213">
        <ele>271.01808059204</ele>
        <time>2016-02-21T10:45:43Z</time>
      </trkpt>
      <trkpt lat="43.76882" lon="3.35226">
        <ele>273.71533301107</ele>
        <time>2016-02-21T10:45:43Z</time>
      </trkpt>
      <trkpt lat="43.76879" lon="3.35326">
        <ele>277.86734728813</ele>
        <time>2016-02-21T10:46:49Z</time>
      </trkpt>
      <trkpt lat="43.76883" lon="3.35339">
        <ele>281.72281826437</ele>
        <time>2016-02-21T10:46:58Z</time>
      </trkpt>
      <trkpt lat="43.76866" lon="3.35432">
        <ele>285.98137591947</ele>
        <time>2016-02-21T10:48:03Z</time>
      </trkpt>
      <trkpt lat="43.7688" lon="3.35507">
        <ele>291.821772249</ele>
        <time>2016-02-21T10:49:00Z</time>
      </trkpt>
      <trkpt lat="43.76888" lon="3.35543">
        <ele>297.66986288428</ele>
        <time>2016-02-21T10:49:17Z</time>
      </trkpt>
      <trkpt lat="43.76889" lon="3.35546">
        <ele>297.66986288428</ele>
        <time>2016-02-21T10:49:19Z</time>
      </trkpt>
      <trkpt lat="43.76892" lon="3.35554">
        <ele>302.99845971671</ele>
        <time>2016-02-21T10:49:24Z</time>
      </trkpt>
      <trkpt lat="43.76895" lon="3.35562">
        <ele>302.99845971671</ele>
        <time>2016-02-21T10:49:29Z</time>
      </trkpt>
      <trkpt lat="43.76897" lon="3.35576">
        <ele>307.89989638141</ele>
        <time>2016-02-21T10:49:39Z</time>
      </trkpt>
      <trkpt lat="43.76899" lon="3.35585">
        <ele>307.89989638141</ele>
        <time>2016-02-21T10:49:44Z</time>
      </trkpt>
      <trkpt lat="43.76901" lon="3.35595">
        <ele>312.16254328123</ele>
        <time>2016-02-21T10:49:49Z</time>
      </trkpt>
      <trkpt lat="43.76909" lon="3.35646">
        <ele>315.69993985223</ele>
        <time>2016-02-21T10:50:41Z</time>
      </trkpt>
      <trkpt lat="43.76916" lon="3.35663">
        <ele>318.84831490517</ele>
        <time>2016-02-21T10:51:13Z</time>
      </trkpt>
      <trkpt lat="43.76932" lon="3.35732">
        <ele>321.61038540584</ele>
        <time>2016-02-21T10:51:57Z</time>
      </trkpt>
      <trkpt lat="43.76929" lon="3.35743">
        <ele>321.61038540584</ele>
        <time>2016-02-21T10:52:12Z</time>
      </trkpt>
      <trkpt lat="43.76924" lon="3.35754">
        <ele>324.00538615659</ele>
        <time>2016-02-21T10:52:12Z</time>
      </trkpt>
      <trkpt lat="43.7692" lon="3.35768">
        <ele>326.00993124749</ele>
        <time>2016-02-21T10:52:21Z</time>
      </trkpt>
      <trkpt lat="43.76921" lon="3.35799">
        <ele>327.66353251979</ele>
        <time>2016-02-21T10:52:46Z</time>
      </trkpt>
      <trkpt lat="43.76926" lon="3.35812">
        <ele>328.97640848586</ele>
        <time>2016-02-21T10:52:46Z</time>
      </trkpt>
      <trkpt lat="43.76931" lon="3.35824">
        <ele>330.06489022153</ele>
        <time>2016-02-21T10:52:54Z</time>
      </trkpt>
      <trkpt lat="43.76932" lon="3.35848">
        <ele>330.99508042597</ele>
        <time>2016-02-21T10:53:19Z</time>
      </trkpt>
      <trkpt lat="43.7693" lon="3.35858">
        <ele>330.99508042597</ele>
        <time>2016-02-21T10:53:19Z</time>
      </trkpt>
      <trkpt lat="43.7696" lon="3.35884">
        <ele>331.99500763871</ele>
        <time>2016-02-21T10:54:25Z</time>
      </trkpt>
      <trkpt lat="43.76964" lon="3.35889">
        <ele>331.99500763871</ele>
        <time>2016-02-21T10:54:25Z</time>
      </trkpt>
      <trkpt lat="43.76973" lon="3.35915">
        <ele>333.26225471286</ele>
        <time>2016-02-21T10:55:06Z</time>
      </trkpt>
      <trkpt lat="43.76962" lon="3.36126">
        <ele>335.88342561141</ele>
        <time>2016-02-21T10:57:54Z</time>
      </trkpt>
      <trkpt lat="43.76959" lon="3.36141">
        <ele>340.54376102501</ele>
        <time>2016-02-21T10:58:07Z</time>
      </trkpt>
      <trkpt lat="43.76958" lon="3.36144">
        <ele>340.54376102501</ele>
        <time>2016-02-21T10:58:16Z</time>
      </trkpt>
      <trkpt lat="43.76958" lon="3.36159">
        <ele>344.80233136119</ele>
        <time>2016-02-21T10:58:16Z</time>
      </trkpt>
      <trkpt lat="43.76949" lon="3.36233">
        <ele>349.2561749606</ele>
        <time>2016-02-21T10:59:05Z</time>
      </trkpt>
      <trkpt lat="43.76941" lon="3.36318">
        <ele>353.3244330497</ele>
        <time>2016-02-21T10:59:59Z</time>
      </trkpt>
      <trkpt lat="43.76944" lon="3.36324">
        <ele>353.3244330497</ele>
        <time>2016-02-21T11:00:08Z</time>
      </trkpt>
      <trkpt lat="43.76985" lon="3.36368">
        <ele>358.6748262907</ele>
        <time>2016-02-21T11:00:49Z</time>
      </trkpt>
      <trkpt lat="43.76995" lon="3.3638">
        <ele>363.64514285061</ele>
        <time>2016-02-21T11:01:11Z</time>
      </trkpt>
      <trkpt lat="43.77001" lon="3.36388">
        <ele>363.64514285061</ele>
        <time>2016-02-21T11:01:11Z</time>
      </trkpt>
      <trkpt lat="43.77012" lon="3.36403">
        <ele>368.37818412898</ele>
        <time>2016-02-21T11:01:28Z</time>
      </trkpt>
      <trkpt lat="43.77019" lon="3.36409">
        <ele>368.37818412898</ele>
        <time>2016-02-21T11:01:28Z</time>
      </trkpt>
      <trkpt lat="43.77078" lon="3.36471">
        <ele>373.83131019786</ele>
        <time>2016-02-21T11:02:52Z</time>
      </trkpt>
      <trkpt lat="43.77083" lon="3.36475">
        <ele>373.83131019786</ele>
        <time>2016-02-21T11:03:00Z</time>
      </trkpt>
      <trkpt lat="43.77125" lon="3.36505">
        <ele>379.14416000514</ele>
        <time>2016-02-21T11:03:54Z</time>
      </trkpt>
      <trkpt lat="43.77129" lon="3.36523">
        <ele>383.87255513891</ele>
        <time>2016-02-21T11:03:59Z</time>
      </trkpt>
      <trkpt lat="43.77132" lon="3.36536">
        <ele>388.16297642773</ele>
        <time>2016-02-21T11:04:10Z</time>
      </trkpt>
      <trkpt lat="43.77159" lon="3.36614">
        <ele>392.89403445434</ele>
        <time>2016-02-21T11:05:16Z</time>
      </trkpt>
      <trkpt lat="43.77164" lon="3.3662">
        <ele>392.89403445434</ele>
        <time>2016-02-21T11:05:16Z</time>
      </trkpt>
      <trkpt lat="43.77204" lon="3.3666">
        <ele>397.47622431131</ele>
        <time>2016-02-21T11:06:23Z</time>
      </trkpt>
      <trkpt lat="43.7726" lon="3.36728">
        <ele>402.33110170714</ele>
        <time>2016-02-21T11:06:59Z</time>
      </trkpt>
      <trkpt lat="43.77267" lon="3.36732">
        <ele>402.33110170714</ele>
        <time>2016-02-21T11:07:08Z</time>
      </trkpt>
      <trkpt lat="43.77277" lon="3.36738">
        <ele>406.75307303787</ele>
        <time>2016-02-21T11:07:25Z</time>
      </trkpt>
      <trkpt lat="43.77283" lon="3.36744">
        <ele>406.75307303787</ele>
        <time>2016-02-21T11:07:25Z</time>
      </trkpt>
      <trkpt lat="43.77301" lon="3.36752">
        <ele>410.77348960922</ele>
        <time>2016-02-21T11:07:42Z</time>
      </trkpt>
      <trkpt lat="43.77322" lon="3.36772">
        <ele>414.43686249155</ele>
        <time>2016-02-21T11:08:08Z</time>
      </trkpt>
      <trkpt lat="43.77325" lon="3.36773">
        <ele>414.43686249155</ele>
        <time>2016-02-21T11:08:11Z</time>
      </trkpt>
      <trkpt lat="43.77372" lon="3.36793">
        <ele>418.64913544319</ele>
        <time>2016-02-21T11:09:08Z</time>
      </trkpt>
      <trkpt lat="43.77376" lon="3.36801">
        <ele>418.64913544319</ele>
        <time>2016-02-21T11:09:08Z</time>
      </trkpt>
      <trkpt lat="43.77444" lon="3.36825">
        <ele>423.81685590058</ele>
        <time>2016-02-21T11:10:14Z</time>
      </trkpt>
      <trkpt lat="43.77447" lon="3.36824">
        <ele>423.81685590058</ele>
        <time>2016-02-21T11:10:14Z</time>
      </trkpt>
      <trkpt lat="43.77447" lon="3.36824">
        <ele>423.81685590058</ele>
        <time>2016-02-21T11:10:15Z</time>
      </trkpt>
      <trkpt lat="43.77457" lon="3.36833">
        <ele>428.60442543142</ele>
        <time>2016-02-21T11:11:07Z</time>
      </trkpt>
      <trkpt lat="43.77458" lon="3.36834">
        <ele>428.60442543142</ele>
        <time>2016-02-21T11:11:09Z</time>
      </trkpt>
      <trkpt lat="43.77485" lon="3.36825">
        <ele>432.7611089306</ele>
        <time>2016-02-21T11:11:46Z</time>
      </trkpt>
      <trkpt lat="43.77493" lon="3.36824">
        <ele>432.7611089306</ele>
        <time>2016-02-21T11:11:46Z</time>
      </trkpt>
      <trkpt lat="43.775" lon="3.36827">
        <ele>436.29042153611</ele>
        <time>2016-02-21T11:11:54Z</time>
      </trkpt>
      <trkpt lat="43.77537" lon="3.36827">
        <ele>440.08287491606</ele>
        <time>2016-02-21T11:12:29Z</time>
      </trkpt>
      <trkpt lat="43.77543" lon="3.36826">
        <ele>440.08287491606</ele>
        <time>2016-02-21T11:12:34Z</time>
      </trkpt>
      <trkpt lat="43.77549" lon="3.36825">
        <ele>443.43532423743</ele>
        <time>2016-02-21T11:12:39Z</time>
      </trkpt>
      <trkpt lat="43.77554" lon="3.36827">
        <ele>443.43532423743</ele>
        <time>2016-02-21T11:12:44Z</time>
      </trkpt>
      <trkpt lat="43.77559" lon="3.36826">
        <ele>446.57006402946</ele>
        <time>2016-02-21T11:12:49Z</time>
      </trkpt>
      <trkpt lat="43.77565" lon="3.36829">
        <ele>446.57006402946</ele>
        <time>2016-02-21T11:12:54Z</time>
      </trkpt>
      <trkpt lat="43.77572" lon="3.36829">
        <ele>449.57691081936</ele>
        <time>2016-02-21T11:12:59Z</time>
      </trkpt>
      <trkpt lat="43.77577" lon="3.3683">
        <ele>449.57691081936</ele>
        <time>2016-02-21T11:13:04Z</time>
      </trkpt>
      <trkpt lat="43.77584" lon="3.36828">
        <ele>452.26439452057</ele>
        <time>2016-02-21T11:13:09Z</time>
      </trkpt>
      <trkpt lat="43.77587" lon="3.3683">
        <ele>452.26439452057</ele>
        <time>2016-02-21T11:13:14Z</time>
      </trkpt>
      <trkpt lat="43.77589" lon="3.36834">
        <ele>452.26439452057</ele>
        <time>2016-02-21T11:13:19Z</time>
      </trkpt>
      <trkpt lat="43.77592" lon="3.36834">
        <ele>452.26439452057</ele>
        <time>2016-02-21T11:13:24Z</time>
      </trkpt>
      <trkpt lat="43.77596" lon="3.36832">
        <ele>454.5866350975</ele>
        <time>2016-02-21T11:13:29Z</time>
      </trkpt>
      <trkpt lat="43.77601" lon="3.36832">
        <ele>454.5866350975</ele>
        <time>2016-02-21T11:13:34Z</time>
      </trkpt>
      <trkpt lat="43.77605" lon="3.36831">
        <ele>454.5866350975</ele>
        <time>2016-02-21T11:13:39Z</time>
      </trkpt>
      <trkpt lat="43.77609" lon="3.36832">
        <ele>456.47332115852</ele>
        <time>2016-02-21T11:13:48Z</time>
      </trkpt>
      <trkpt lat="43.77638" lon="3.36843">
        <ele>458.43802962209</ele>
        <time>2016-02-21T11:14:21Z</time>
      </trkpt>
      <trkpt lat="43.77645" lon="3.36847">
        <ele>458.43802962209</ele>
        <time>2016-02-21T11:14:24Z</time>
      </trkpt>
      <trkpt lat="43.77664" lon="3.36852">
        <ele>460.89785756733</ele>
        <time>2016-02-21T11:14:41Z</time>
      </trkpt>
      <trkpt lat="43.77686" lon="3.36856">
        <ele>463.55952108788</ele>
        <time>2016-02-21T11:15:03Z</time>
      </trkpt>
      <trkpt lat="43.77686" lon="3.36856">
        <ele>463.55952108788</ele>
        <time>2016-02-21T11:15:09Z</time>
      </trkpt>
      <trkpt lat="43.77688" lon="3.36859">
        <ele>463.55952108788</ele>
        <time>2016-02-21T11:15:09Z</time>
      </trkpt>
      <trkpt lat="43.77693" lon="3.36861">
        <ele>463.55952108788</ele>
        <time>2016-02-21T11:15:15Z</time>
      </trkpt>
      <trkpt lat="43.77696" lon="3.36866">
        <ele>466.15119768137</ele>
        <time>2016-02-21T11:15:19Z</time>
      </trkpt>
      <trkpt lat="43.77701" lon="3.36868">
        <ele>466.15119768137</ele>
        <time>2016-02-21T11:15:24Z</time>
      </trkpt>
      <trkpt lat="43.77707" lon="3.36876">
        <ele>468.47917642986</ele>
        <time>2016-02-21T11:15:35Z</time>
      </trkpt>
      <trkpt lat="43.77714" lon="3.36875">
        <ele>468.47917642986</ele>
        <time>2016-02-21T11:15:49Z</time>
      </trkpt>
      <trkpt lat="43.77718" lon="3.36877">
        <ele>470.29271091218</ele>
        <time>2016-02-21T11:15:54Z</time>
      </trkpt>
      <trkpt lat="43.77723" lon="3.3688">
        <ele>470.29271091218</ele>
        <time>2016-02-21T11:15:59Z</time>
      </trkpt>
      <trkpt lat="43.7774" lon="3.36892">
        <ele>471.60604514246</ele>
        <time>2016-02-21T11:16:14Z</time>
      </trkpt>
      <trkpt lat="43.77745" lon="3.36895">
        <ele>471.60604514246</ele>
        <time>2016-02-21T11:16:23Z</time>
      </trkpt>
      <trkpt lat="43.77753" lon="3.36906">
        <ele>472.53462185078</ele>
        <time>2016-02-21T11:16:29Z</time>
      </trkpt>
      <trkpt lat="43.77804" lon="3.36947">
        <ele>474.12355565387</ele>
        <time>2016-02-21T11:19:15Z</time>
      </trkpt>
      <trkpt lat="43.7783" lon="3.36981">
        <ele>475.10452991883</ele>
        <time>2016-02-21T11:19:21Z</time>
      </trkpt>
      <trkpt lat="43.77832" lon="3.36985">
        <ele>475.10452991883</ele>
        <time>2016-02-21T11:19:24Z</time>
      </trkpt>
      <trkpt lat="43.77838" lon="3.3699">
        <ele>475.71698797164</ele>
        <time>2016-02-21T11:19:29Z</time>
      </trkpt>
      <trkpt lat="43.7784" lon="3.36994">
        <ele>475.71698797164</ele>
        <time>2016-02-21T11:19:57Z</time>
      </trkpt>
      <trkpt lat="43.77859" lon="3.36996">
        <ele>475.92419941174</ele>
        <time>2016-02-21T11:19:57Z</time>
      </trkpt>
      <trkpt lat="43.78053" lon="3.3715">
        <ele>475.82294282121</ele>
        <time>2016-02-21T11:23:29Z</time>
      </trkpt>
      <trkpt lat="43.781" lon="3.37196">
        <ele>474.72490822361</ele>
        <time>2016-02-21T11:24:36Z</time>
      </trkpt>
      <trkpt lat="43.78153" lon="3.3726">
        <ele>471.44687922999</ele>
        <time>2016-02-21T11:25:04Z</time>
      </trkpt>
      <trkpt lat="43.78164" lon="3.3726">
        <ele>468.21558948118</ele>
        <time>2016-02-21T11:25:16Z</time>
      </trkpt>
      <trkpt lat="43.78177" lon="3.3727">
        <ele>465.08927946957</ele>
        <time>2016-02-21T11:25:24Z</time>
      </trkpt>
      <trkpt lat="43.78257" lon="3.37347">
        <ele>461.08284654052</ele>
        <time>2016-02-21T11:26:44Z</time>
      </trkpt>
      <trkpt lat="43.78265" lon="3.37353">
        <ele>457.16082863209</ele>
        <time>2016-02-21T11:27:00Z</time>
      </trkpt>
      <trkpt lat="43.78307" lon="3.37362">
        <ele>452.88931395327</ele>
        <time>2016-02-21T11:27:27Z</time>
      </trkpt>
      <trkpt lat="43.78309" lon="3.3736">
        <ele>452.88931395327</ele>
        <time>2016-02-21T11:27:29Z</time>
      </trkpt>
      <trkpt lat="43.78314" lon="3.3736">
        <ele>452.88931395327</ele>
        <time>2016-02-21T11:27:38Z</time>
      </trkpt>
      <trkpt lat="43.78313" lon="3.37359">
        <ele>452.88931395327</ele>
        <time>2016-02-21T11:27:44Z</time>
      </trkpt>
      <trkpt lat="43.78312" lon="3.3736">
        <ele>452.88931395327</ele>
        <time>2016-02-21T11:27:49Z</time>
      </trkpt>
      <trkpt lat="43.78309" lon="3.37367">
        <ele>449.42471980458</ele>
        <time>2016-02-21T11:27:54Z</time>
      </trkpt>
      <trkpt lat="43.78309" lon="3.37367">
        <ele>449.42471980458</ele>
        <time>2016-02-21T11:27:59Z</time>
      </trkpt>
      <trkpt lat="43.783" lon="3.37363">
        <ele>446.14810851241</ele>
        <time>2016-02-21T11:28:14Z</time>
      </trkpt>
      <trkpt lat="43.78292" lon="3.37369">
        <ele>446.14810851241</ele>
        <time>2016-02-21T11:28:24Z</time>
      </trkpt>
      <trkpt lat="43.78278" lon="3.37373">
        <ele>442.65817525244</ele>
        <time>2016-02-21T11:28:36Z</time>
      </trkpt>
      <trkpt lat="43.78247" lon="3.37364">
        <ele>438.51117160483</ele>
        <time>2016-02-21T11:29:08Z</time>
      </trkpt>
      <trkpt lat="43.78244" lon="3.37364">
        <ele>438.51117160483</ele>
        <time>2016-02-21T11:29:10Z</time>
      </trkpt>
      <trkpt lat="43.78184" lon="3.37351">
        <ele>433.47048141507</ele>
        <time>2016-02-21T11:30:01Z</time>
      </trkpt>
      <trkpt lat="43.78182" lon="3.37351">
        <ele>433.47048141507</ele>
        <time>2016-02-21T11:30:09Z</time>
      </trkpt>
      <trkpt lat="43.78182" lon="3.37373">
        <ele>427.39106340481</ele>
        <time>2016-02-21T11:30:48Z</time>
      </trkpt>
      <trkpt lat="43.78183" lon="3.37373">
        <ele>427.39106340481</ele>
        <time>2016-02-21T11:30:49Z</time>
      </trkpt>
      <trkpt lat="43.78209" lon="3.37383">
        <ele>421.1938117246</ele>
        <time>2016-02-21T11:31:22Z</time>
      </trkpt>
      <trkpt lat="43.78214" lon="3.37396">
        <ele>415.27009286807</ele>
        <time>2016-02-21T11:31:24Z</time>
      </trkpt>
      <trkpt lat="43.78236" lon="3.37426">
        <ele>409.26005780305</ele>
        <time>2016-02-21T11:31:49Z</time>
      </trkpt>
      <trkpt lat="43.78333" lon="3.37526">
        <ele>402.28205579552</ele>
        <time>2016-02-21T11:33:54Z</time>
      </trkpt>
      <trkpt lat="43.78309" lon="3.37583">
        <ele>396.0881929703</ele>
        <time>2016-02-21T11:35:01Z</time>
      </trkpt>
      <trkpt lat="43.78317" lon="3.37608">
        <ele>390.12142585379</ele>
        <time>2016-02-21T11:36:27Z</time>
      </trkpt>
      <trkpt lat="43.78358" lon="3.37656">
        <ele>384.70073572</ele>
        <time>2016-02-21T11:37:53Z</time>
      </trkpt>
      <trkpt lat="43.78363" lon="3.37662">
        <ele>384.70073572</ele>
        <time>2016-02-21T11:37:54Z</time>
      </trkpt>
      <trkpt lat="43.78406" lon="3.37683">
        <ele>378.85071426151</ele>
        <time>2016-02-21T11:38:57Z</time>
      </trkpt>
      <trkpt lat="43.78446" lon="3.37706">
        <ele>373.28303505447</ele>
        <time>2016-02-21T11:39:40Z</time>
      </trkpt>
      <trkpt lat="43.78443" lon="3.37714">
        <ele>373.28303505447</ele>
        <time>2016-02-21T11:39:44Z</time>
      </trkpt>
      <trkpt lat="43.78456" lon="3.37726">
        <ele>368.78527299864</ele>
        <time>2016-02-21T11:40:12Z</time>
      </trkpt>
      <trkpt lat="43.7847" lon="3.37739">
        <ele>364.90132593947</ele>
        <time>2016-02-21T11:40:12Z</time>
      </trkpt>
      <trkpt lat="43.78546" lon="3.37868">
        <ele>362.11447734503</ele>
        <time>2016-02-21T11:42:41Z</time>
      </trkpt>
      <trkpt lat="43.78542" lon="3.3787">
        <ele>362.11447734503</ele>
        <time>2016-02-21T11:42:41Z</time>
      </trkpt>
      <trkpt lat="43.78479" lon="3.37894">
        <ele>359.73004750851</ele>
        <time>2016-02-21T11:43:46Z</time>
      </trkpt>
      <trkpt lat="43.78476" lon="3.37894">
        <ele>359.73004750851</ele>
        <time>2016-02-21T11:43:49Z</time>
      </trkpt>
      <trkpt lat="43.78456" lon="3.37881">
        <ele>358.09734423104</ele>
        <time>2016-02-21T11:44:11Z</time>
      </trkpt>
      <trkpt lat="43.7844" lon="3.37975">
        <ele>357.34995857046</ele>
        <time>2016-02-21T11:45:03Z</time>
      </trkpt>
      <trkpt lat="43.78441" lon="3.37979">
        <ele>357.34995857046</ele>
        <time>2016-02-21T11:45:09Z</time>
      </trkpt>
      <trkpt lat="43.78444" lon="3.37987">
        <ele>357.07539979778</ele>
        <time>2016-02-21T11:45:09Z</time>
      </trkpt>
      <trkpt lat="43.784" lon="3.38167">
        <ele>358.51836423434</ele>
        <time>2016-02-21T11:47:46Z</time>
      </trkpt>
      <trkpt lat="43.78401" lon="3.38175">
        <ele>358.51836423434</ele>
        <time>2016-02-21T11:48:01Z</time>
      </trkpt>
      <trkpt lat="43.78403" lon="3.38169">
        <ele>359.8290320647</ele>
        <time>2016-02-21T11:48:41Z</time>
      </trkpt>
      <trkpt lat="43.78403" lon="3.38171">
        <ele>359.8290320647</ele>
        <time>2016-02-21T11:48:41Z</time>
      </trkpt>
      <trkpt lat="43.78397" lon="3.38176">
        <ele>359.8290320647</ele>
        <time>2016-02-21T11:48:49Z</time>
      </trkpt>
      <trkpt lat="43.78396" lon="3.38178">
        <ele>361.1960102257</ele>
        <time>2016-02-21T11:48:54Z</time>
      </trkpt>
      <trkpt lat="43.78396" lon="3.3818">
        <ele>361.1960102257</ele>
        <time>2016-02-21T11:48:59Z</time>
      </trkpt>
      <trkpt lat="43.78396" lon="3.38177">
        <ele>361.1960102257</ele>
        <time>2016-02-21T11:49:04Z</time>
      </trkpt>
      <trkpt lat="43.78398" lon="3.38176">
        <ele>361.1960102257</ele>
        <time>2016-02-21T11:49:09Z</time>
      </trkpt>
      <trkpt lat="43.78399" lon="3.38176">
        <ele>361.1960102257</ele>
        <time>2016-02-21T11:49:14Z</time>
      </trkpt>
      <trkpt lat="43.78398" lon="3.38177">
        <ele>361.1960102257</ele>
        <time>2016-02-21T11:49:19Z</time>
      </trkpt>
      <trkpt lat="43.78399" lon="3.38173">
        <ele>362.59179981386</ele>
        <time>2016-02-21T11:49:24Z</time>
      </trkpt>
      <trkpt lat="43.78398" lon="3.38165">
        <ele>362.59179981386</ele>
        <time>2016-02-21T11:49:29Z</time>
      </trkpt>
      <trkpt lat="43.78401" lon="3.38163">
        <ele>362.59179981386</ele>
        <time>2016-02-21T11:49:34Z</time>
      </trkpt>
      <trkpt lat="43.78401" lon="3.38164">
        <ele>363.9185202296</ele>
        <time>2016-02-21T11:49:44Z</time>
      </trkpt>
      <trkpt lat="43.784" lon="3.38165">
        <ele>363.9185202296</ele>
        <time>2016-02-21T11:49:49Z</time>
      </trkpt>
      <trkpt lat="43.78399" lon="3.38171">
        <ele>363.9185202296</ele>
        <time>2016-02-21T11:50:04Z</time>
      </trkpt>
      <trkpt lat="43.78398" lon="3.38172">
        <ele>363.9185202296</ele>
        <time>2016-02-21T11:50:09Z</time>
      </trkpt>
      <trkpt lat="43.78392" lon="3.38222">
        <ele>365.0566384668</ele>
        <time>2016-02-21T11:50:47Z</time>
      </trkpt>
      <trkpt lat="43.78406" lon="3.38245">
        <ele>365.67958879863</ele>
        <time>2016-02-21T11:51:16Z</time>
      </trkpt>
      <trkpt lat="43.78411" lon="3.38264">
        <ele>366.12021041909</ele>
        <time>2016-02-21T11:51:47Z</time>
      </trkpt>
      <trkpt lat="43.78428" lon="3.38278">
        <ele>366.74494176642</ele>
        <time>2016-02-21T11:51:55Z</time>
      </trkpt>
      <trkpt lat="43.78434" lon="3.38281">
        <ele>366.74494176642</ele>
        <time>2016-02-21T11:51:55Z</time>
      </trkpt>
      <trkpt lat="43.78445" lon="3.38285">
        <ele>367.50361067086</ele>
        <time>2016-02-21T11:52:08Z</time>
      </trkpt>
      <trkpt lat="43.78447" lon="3.38286">
        <ele>367.50361067086</ele>
        <time>2016-02-21T11:52:08Z</time>
      </trkpt>
      <trkpt lat="43.78448" lon="3.38288">
        <ele>367.50361067086</ele>
        <time>2016-02-21T11:52:09Z</time>
      </trkpt>
      <trkpt lat="43.7845" lon="3.38293">
        <ele>367.50361067086</ele>
        <time>2016-02-21T11:52:15Z</time>
      </trkpt>
      <trkpt lat="43.78451" lon="3.38293">
        <ele>367.50361067086</ele>
        <time>2016-02-21T11:52:24Z</time>
      </trkpt>
      <trkpt lat="43.78448" lon="3.38302">
        <ele>368.72401136912</ele>
        <time>2016-02-21T11:53:17Z</time>
      </trkpt>
      <trkpt lat="43.78443" lon="3.38303">
        <ele>368.72401136912</ele>
        <time>2016-02-21T11:53:25Z</time>
      </trkpt>
      <trkpt lat="43.78442" lon="3.38318">
        <ele>370.2041611557</ele>
        <time>2016-02-21T11:53:42Z</time>
      </trkpt>
      <trkpt lat="43.78444" lon="3.3832">
        <ele>370.2041611557</ele>
        <time>2016-02-21T11:53:42Z</time>
      </trkpt>
      <trkpt lat="43.78464" lon="3.38318">
        <ele>371.75620789378</ele>
        <time>2016-02-21T11:54:15Z</time>
      </trkpt>
      <trkpt lat="43.78443" lon="3.38349">
        <ele>373.98415600608</ele>
        <time>2016-02-21T11:54:59Z</time>
      </trkpt>
      <trkpt lat="43.78443" lon="3.38353">
        <ele>373.98415600608</ele>
        <time>2016-02-21T11:54:59Z</time>
      </trkpt>
      <trkpt lat="43.78432" lon="3.3842">
        <ele>376.73967307315</ele>
        <time>2016-02-21T11:56:23Z</time>
      </trkpt>
      <trkpt lat="43.78428" lon="3.38423">
        <ele>376.73967307315</ele>
        <time>2016-02-21T11:56:34Z</time>
      </trkpt>
      <trkpt lat="43.78425" lon="3.38426">
        <ele>376.73967307315</ele>
        <time>2016-02-21T11:56:39Z</time>
      </trkpt>
      <trkpt lat="43.78415" lon="3.3846">
        <ele>379.88395394444</ele>
        <time>2016-02-21T11:57:31Z</time>
      </trkpt>
      <trkpt lat="43.78408" lon="3.3848">
        <ele>383.07127096404</ele>
        <time>2016-02-21T11:57:56Z</time>
      </trkpt>
      <trkpt lat="43.78364" lon="3.38583">
        <ele>387.46571807862</ele>
        <time>2016-02-21T11:59:03Z</time>
      </trkpt>
      <trkpt lat="43.78364" lon="3.38584">
        <ele>387.46571807862</ele>
        <time>2016-02-21T11:59:05Z</time>
      </trkpt>
      <trkpt lat="43.78353" lon="3.38653">
        <ele>392.45657120132</ele>
        <time>2016-02-21T12:00:01Z</time>
      </trkpt>
      <trkpt lat="43.78351" lon="3.38657">
        <ele>392.45657120132</ele>
        <time>2016-02-21T12:00:08Z</time>
      </trkpt>
      <trkpt lat="43.7836" lon="3.38704">
        <ele>397.64947630479</ele>
        <time>2016-02-21T12:00:39Z</time>
      </trkpt>
      <trkpt lat="43.78374" lon="3.38722">
        <ele>402.63552719339</ele>
        <time>2016-02-21T12:01:00Z</time>
      </trkpt>
      <trkpt lat="43.78383" lon="3.38728">
        <ele>407.33939193119</ele>
        <time>2016-02-21T12:01:00Z</time>
      </trkpt>
      <trkpt lat="43.78419" lon="3.38782">
        <ele>411.8365264769</ele>
        <time>2016-02-21T12:01:44Z</time>
      </trkpt>
      <trkpt lat="43.78456" lon="3.38798">
        <ele>416.15456359234</ele>
        <time>2016-02-21T12:02:26Z</time>
      </trkpt>
      <trkpt lat="43.78467" lon="3.38801">
        <ele>420.16147745751</ele>
        <time>2016-02-21T12:02:26Z</time>
      </trkpt>
      <trkpt lat="43.78484" lon="3.38807">
        <ele>423.96680907378</ele>
        <time>2016-02-21T12:02:45Z</time>
      </trkpt>
      <trkpt lat="43.785" lon="3.38809">
        <ele>427.64421853784</ele>
        <time>2016-02-21T12:03:00Z</time>
      </trkpt>
      <trkpt lat="43.78512" lon="3.3882">
        <ele>431.1762763032</ele>
        <time>2016-02-21T12:03:33Z</time>
      </trkpt>
      <trkpt lat="43.78499" lon="3.3885">
        <ele>434.23062440401</ele>
        <time>2016-02-21T12:03:58Z</time>
      </trkpt>
      <trkpt lat="43.78498" lon="3.38863">
        <ele>436.91902944728</ele>
        <time>2016-02-21T12:03:58Z</time>
      </trkpt>
      <trkpt lat="43.78475" lon="3.38915">
        <ele>439.36091790849</ele>
        <time>2016-02-21T12:04:37Z</time>
      </trkpt>
      <trkpt lat="43.78475" lon="3.38918">
        <ele>439.36091790849</ele>
        <time>2016-02-21T12:04:39Z</time>
      </trkpt>
      <trkpt lat="43.78489" lon="3.39008">
        <ele>441.99952306162</ele>
        <time>2016-02-21T12:05:49Z</time>
      </trkpt>
      <trkpt lat="43.78488" lon="3.39009">
        <ele>441.99952306162</ele>
        <time>2016-02-21T12:05:49Z</time>
      </trkpt>
      <trkpt lat="43.78456" lon="3.39125">
        <ele>444.91391969368</ele>
        <time>2016-02-21T12:07:20Z</time>
      </trkpt>
      <trkpt lat="43.78442" lon="3.39188">
        <ele>447.5861411767</ele>
        <time>2016-02-21T12:08:00Z</time>
      </trkpt>
      <trkpt lat="43.78434" lon="3.39244">
        <ele>450.18586259864</ele>
        <time>2016-02-21T12:08:36Z</time>
      </trkpt>
      <trkpt lat="43.78438" lon="3.39262">
        <ele>452.66912653518</ele>
        <time>2016-02-21T12:09:00Z</time>
      </trkpt>
      <trkpt lat="43.78437" lon="3.39269">
        <ele>452.66912653518</ele>
        <time>2016-02-21T12:09:00Z</time>
      </trkpt>
      <trkpt lat="43.78435" lon="3.39304">
        <ele>455.12561048106</ele>
        <time>2016-02-21T12:09:27Z</time>
      </trkpt>
      <trkpt lat="43.78422" lon="3.39305">
        <ele>457.39385124514</ele>
        <time>2016-02-21T12:09:35Z</time>
      </trkpt>
      <trkpt lat="43.78421" lon="3.39306">
        <ele>457.39385124514</ele>
        <time>2016-02-21T12:09:42Z</time>
      </trkpt>
      <trkpt lat="43.78417" lon="3.39315">
        <ele>457.39385124514</ele>
        <time>2016-02-21T12:09:44Z</time>
      </trkpt>
      <trkpt lat="43.78409" lon="3.39333">
        <ele>459.46923927602</ele>
        <time>2016-02-21T12:10:07Z</time>
      </trkpt>
      <trkpt lat="43.78385" lon="3.3936">
        <ele>461.46367094542</ele>
        <time>2016-02-21T12:10:26Z</time>
      </trkpt>
      <trkpt lat="43.7837" lon="3.39373">
        <ele>463.25078978194</ele>
        <time>2016-02-21T12:10:42Z</time>
      </trkpt>
      <trkpt lat="43.78368" lon="3.39385">
        <ele>464.81528547325</ele>
        <time>2016-02-21T12:10:52Z</time>
      </trkpt>
      <trkpt lat="43.78365" lon="3.39385">
        <ele>464.81528547325</ele>
        <time>2016-02-21T12:11:07Z</time>
      </trkpt>
      <trkpt lat="43.78364" lon="3.39378">
        <ele>464.81528547325</ele>
        <time>2016-02-21T12:11:23Z</time>
      </trkpt>
      <trkpt lat="43.78328" lon="3.39366">
        <ele>466.28799442006</ele>
        <time>2016-02-21T12:11:40Z</time>
      </trkpt>
      <trkpt lat="43.78315" lon="3.39356">
        <ele>467.50244118341</ele>
        <time>2016-02-21T12:12:00Z</time>
      </trkpt>
      <trkpt lat="43.78308" lon="3.39341">
        <ele>468.80974294237</ele>
        <time>2016-02-21T12:12:24Z</time>
      </trkpt>
      <trkpt lat="43.78306" lon="3.3933">
        <ele>468.80974294237</ele>
        <time>2016-02-21T12:12:24Z</time>
      </trkpt>
      <trkpt lat="43.78311" lon="3.39319">
        <ele>470.3910783838</ele>
        <time>2016-02-21T12:12:35Z</time>
      </trkpt>
      <trkpt lat="43.78311" lon="3.39274">
        <ele>472.45699137331</ele>
        <time>2016-02-21T12:13:05Z</time>
      </trkpt>
      <trkpt lat="43.78307" lon="3.39239">
        <ele>474.66818141752</ele>
        <time>2016-02-21T12:13:31Z</time>
      </trkpt>
      <trkpt lat="43.78304" lon="3.39225">
        <ele>476.71004725852</ele>
        <time>2016-02-21T12:13:31Z</time>
      </trkpt>
      <trkpt lat="43.78297" lon="3.39208">
        <ele>478.50790987188</ele>
        <time>2016-02-21T12:13:44Z</time>
      </trkpt>
      <trkpt lat="43.78276" lon="3.39129">
        <ele>480.36810809521</ele>
        <time>2016-02-21T12:14:39Z</time>
      </trkpt>
      <trkpt lat="43.78251" lon="3.3908">
        <ele>481.66654633185</ele>
        <time>2016-02-21T12:15:10Z</time>
      </trkpt>
      <trkpt lat="43.78163" lon="3.39054">
        <ele>482.86428453055</ele>
        <time>2016-02-21T12:16:22Z</time>
      </trkpt>
      <trkpt lat="43.78155" lon="3.39051">
        <ele>482.86428453055</ele>
        <time>2016-02-21T12:16:27Z</time>
      </trkpt>
      <trkpt lat="43.78159" lon="3.39048">
        <ele>483.75482341715</ele>
        <time>2016-02-21T12:16:34Z</time>
      </trkpt>
      <trkpt lat="43.78189" lon="3.39064">
        <ele>482.92284821406</ele>
        <time>2016-02-21T12:17:43Z</time>
      </trkpt>
      <trkpt lat="43.78154" lon="3.39026">
        <ele>479.0907392756</ele>
        <time>2016-02-21T12:19:17Z</time>
      </trkpt>
      <trkpt lat="43.78145" lon="3.3903">
        <ele>475.39211073218</ele>
        <time>2016-02-21T12:19:17Z</time>
      </trkpt>
      <trkpt lat="43.78059" lon="3.3899">
        <ele>470.96870321016</ele>
        <time>2016-02-21T12:20:32Z</time>
      </trkpt>
      <trkpt lat="43.78058" lon="3.38989">
        <ele>470.96870321016</ele>
        <time>2016-02-21T12:20:34Z</time>
      </trkpt>
      <trkpt lat="43.78052" lon="3.38984">
        <ele>470.96870321016</ele>
        <time>2016-02-21T12:20:50Z</time>
      </trkpt>
      <trkpt lat="43.78041" lon="3.38978">
        <ele>466.28105494543</ele>
        <time>2016-02-21T12:20:50Z</time>
      </trkpt>
      <trkpt lat="43.78034" lon="3.38977">
        <ele>466.28105494543</ele>
        <time>2016-02-21T12:21:03Z</time>
      </trkpt>
      <trkpt lat="43.78042" lon="3.38988">
        <ele>460.94949050727</ele>
        <time>2016-02-21T12:21:37Z</time>
      </trkpt>
      <trkpt lat="43.78027" lon="3.38996">
        <ele>455.38766988025</ele>
        <time>2016-02-21T12:22:11Z</time>
      </trkpt>
      <trkpt lat="43.78006" lon="3.39003">
        <ele>450.35400211054</ele>
        <time>2016-02-21T12:22:28Z</time>
      </trkpt>
      <trkpt lat="43.77995" lon="3.39003">
        <ele>445.65596964631</ele>
        <time>2016-02-21T12:22:28Z</time>
      </trkpt>
      <trkpt lat="43.77986" lon="3.39">
        <ele>441.2724952577</ele>
        <time>2016-02-21T12:22:36Z</time>
      </trkpt>
      <trkpt lat="43.77918" lon="3.38976">
        <ele>437.3557854517</ele>
        <time>2016-02-21T12:23:33Z</time>
      </trkpt>
      <trkpt lat="43.779" lon="3.38961">
        <ele>433.25260170913</ele>
        <time>2016-02-21T12:23:47Z</time>
      </trkpt>
      <trkpt lat="43.77872" lon="3.38942">
        <ele>428.91988351372</ele>
        <time>2016-02-21T12:24:20Z</time>
      </trkpt>
      <trkpt lat="43.77861" lon="3.38932">
        <ele>424.80797153613</ele>
        <time>2016-02-21T12:24:20Z</time>
      </trkpt>
      <trkpt lat="43.77854" lon="3.38917">
        <ele>420.82871584055</ele>
        <time>2016-02-21T12:24:31Z</time>
      </trkpt>
      <trkpt lat="43.77849" lon="3.38903">
        <ele>417.02935668064</ele>
        <time>2016-02-21T12:24:44Z</time>
      </trkpt>
      <trkpt lat="43.77835" lon="3.38876">
        <ele>412.99157940993</ele>
        <time>2016-02-21T12:25:05Z</time>
      </trkpt>
      <trkpt lat="43.77801" lon="3.38841">
        <ele>408.8756580937</ele>
        <time>2016-02-21T12:25:35Z</time>
      </trkpt>
      <trkpt lat="43.77792" lon="3.38819">
        <ele>404.98839682179</ele>
        <time>2016-02-21T12:26:00Z</time>
      </trkpt>
      <trkpt lat="43.77775" lon="3.38812">
        <ele>401.58415702419</ele>
        <time>2016-02-21T12:26:31Z</time>
      </trkpt>
      <trkpt lat="43.77773" lon="3.38808">
        <ele>401.58415702419</ele>
        <time>2016-02-21T12:26:31Z</time>
      </trkpt>
      <trkpt lat="43.77753" lon="3.38753">
        <ele>398.86799640004</ele>
        <time>2016-02-21T12:27:39Z</time>
      </trkpt>
      <trkpt lat="43.77746" lon="3.38749">
        <ele>398.86799640004</ele>
        <time>2016-02-21T12:28:00Z</time>
      </trkpt>
      <trkpt lat="43.77734" lon="3.38738">
        <ele>396.56638612406</ele>
        <time>2016-02-21T12:28:44Z</time>
      </trkpt>
      <trkpt lat="43.77724" lon="3.38736">
        <ele>394.56841136269</ele>
        <time>2016-02-21T12:28:51Z</time>
      </trkpt>
      <trkpt lat="43.77719" lon="3.38735">
        <ele>394.56841136269</ele>
        <time>2016-02-21T12:28:54Z</time>
      </trkpt>
      <trkpt lat="43.77714" lon="3.38734">
        <ele>392.87091707455</ele>
        <time>2016-02-21T12:28:59Z</time>
      </trkpt>
      <trkpt lat="43.77709" lon="3.38732">
        <ele>392.87091707455</ele>
        <time>2016-02-21T12:29:04Z</time>
      </trkpt>
      <trkpt lat="43.77705" lon="3.38728">
        <ele>391.39768434845</ele>
        <time>2016-02-21T12:29:09Z</time>
      </trkpt>
      <trkpt lat="43.77699" lon="3.38725">
        <ele>391.39768434845</ele>
        <time>2016-02-21T12:29:14Z</time>
      </trkpt>
      <trkpt lat="43.77697" lon="3.38723">
        <ele>391.39768434845</ele>
        <time>2016-02-21T12:29:19Z</time>
      </trkpt>
      <trkpt lat="43.77693" lon="3.38722">
        <ele>390.04826401427</ele>
        <time>2016-02-21T12:29:59Z</time>
      </trkpt>
      <trkpt lat="43.7769" lon="3.3872">
        <ele>390.04826401427</ele>
        <time>2016-02-21T12:30:04Z</time>
      </trkpt>
      <trkpt lat="43.77691" lon="3.3872">
        <ele>390.04826401427</ele>
        <time>2016-02-21T12:30:09Z</time>
      </trkpt>
      <trkpt lat="43.77691" lon="3.38717">
        <ele>390.04826401427</ele>
        <time>2016-02-21T12:30:29Z</time>
      </trkpt>
      <trkpt lat="43.77686" lon="3.38714">
        <ele>389.14680448451</ele>
        <time>2016-02-21T12:30:34Z</time>
      </trkpt>
      <trkpt lat="43.77684" lon="3.3871">
        <ele>389.14680448451</ele>
        <time>2016-02-21T12:30:46Z</time>
      </trkpt>
      <trkpt lat="43.77678" lon="3.38706">
        <ele>388.63177412701</ele>
        <time>2016-02-21T12:30:54Z</time>
      </trkpt>
      <trkpt lat="43.77677" lon="3.38704">
        <ele>388.63177412701</ele>
        <time>2016-02-21T12:31:11Z</time>
      </trkpt>
      <trkpt lat="43.77626" lon="3.38685">
        <ele>388.4015353269</ele>
        <time>2016-02-21T12:31:55Z</time>
      </trkpt>
      <trkpt lat="43.77624" lon="3.38685">
        <ele>388.4015353269</ele>
        <time>2016-02-21T12:31:55Z</time>
      </trkpt>
      <trkpt lat="43.77602" lon="3.38739">
        <ele>389.87400602789</ele>
        <time>2016-02-21T12:32:44Z</time>
      </trkpt>
      <trkpt lat="43.77728" lon="3.38955">
        <ele>392.93122207842</ele>
        <time>2016-02-21T12:35:54Z</time>
      </trkpt>
      <trkpt lat="43.77731" lon="3.38959">
        <ele>392.93122207842</ele>
        <time>2016-02-21T12:35:59Z</time>
      </trkpt>
      <trkpt lat="43.77745" lon="3.38967">
        <ele>396.46486743179</ele>
        <time>2016-02-21T12:36:14Z</time>
      </trkpt>
      <trkpt lat="43.77744" lon="3.38972">
        <ele>396.46486743179</ele>
        <time>2016-02-21T12:36:19Z</time>
      </trkpt>
      <trkpt lat="43.77749" lon="3.38973">
        <ele>396.46486743179</ele>
        <time>2016-02-21T12:36:29Z</time>
      </trkpt>
      <trkpt lat="43.77752" lon="3.38976">
        <ele>400.09504760675</ele>
        <time>2016-02-21T12:36:49Z</time>
      </trkpt>
      <trkpt lat="43.77758" lon="3.38982">
        <ele>400.09504760675</ele>
        <time>2016-02-21T12:36:59Z</time>
      </trkpt>
      <trkpt lat="43.77763" lon="3.38985">
        <ele>403.75761723597</ele>
        <time>2016-02-21T12:37:04Z</time>
      </trkpt>
      <trkpt lat="43.77776" lon="3.38991">
        <ele>407.26329176953</ele>
        <time>2016-02-21T12:37:19Z</time>
      </trkpt>
      <trkpt lat="43.77775" lon="3.38993">
        <ele>407.26329176953</ele>
        <time>2016-02-21T12:37:24Z</time>
      </trkpt>
      <trkpt lat="43.77779" lon="3.38999">
        <ele>407.26329176953</ele>
        <time>2016-02-21T12:37:49Z</time>
      </trkpt>
      <trkpt lat="43.77786" lon="3.38999">
        <ele>410.7253396746</ele>
        <time>2016-02-21T12:38:04Z</time>
      </trkpt>
      <trkpt lat="43.77787" lon="3.39">
        <ele>410.7253396746</ele>
        <time>2016-02-21T12:38:10Z</time>
      </trkpt>
      <trkpt lat="43.77796" lon="3.39012">
        <ele>414.06151456746</ele>
        <time>2016-02-21T12:38:22Z</time>
      </trkpt>
      <trkpt lat="43.77821" lon="3.39032">
        <ele>417.16720864644</ele>
        <time>2016-02-21T12:38:47Z</time>
      </trkpt>
      <trkpt lat="43.77844" lon="3.39054">
        <ele>420.17682277542</ele>
        <time>2016-02-21T12:39:14Z</time>
      </trkpt>
      <trkpt lat="43.77903" lon="3.39095">
        <ele>424.33935334895</ele>
        <time>2016-02-21T12:40:22Z</time>
      </trkpt>
      <trkpt lat="43.77908" lon="3.39099">
        <ele>424.33935334895</ele>
        <time>2016-02-21T12:40:23Z</time>
      </trkpt>
      <trkpt lat="43.77944" lon="3.39131">
        <ele>430.04518708833</ele>
        <time>2016-02-21T12:41:22Z</time>
      </trkpt>
      <trkpt lat="43.77945" lon="3.39134">
        <ele>430.04518708833</ele>
        <time>2016-02-21T12:41:24Z</time>
      </trkpt>
      <trkpt lat="43.77949" lon="3.3915">
        <ele>435.85051221716</ele>
        <time>2016-02-21T12:41:45Z</time>
      </trkpt>
      <trkpt lat="43.77948" lon="3.39158">
        <ele>435.85051221716</ele>
        <time>2016-02-21T12:41:45Z</time>
      </trkpt>
      <trkpt lat="43.77918" lon="3.39236">
        <ele>443.81856114549</ele>
        <time>2016-02-21T12:43:20Z</time>
      </trkpt>
      <trkpt lat="43.77914" lon="3.39237">
        <ele>443.81856114549</ele>
        <time>2016-02-21T12:43:24Z</time>
      </trkpt>
      <trkpt lat="43.77912" lon="3.39243">
        <ele>443.81856114549</ele>
        <time>2016-02-21T12:43:35Z</time>
      </trkpt>
      <trkpt lat="43.77911" lon="3.39246">
        <ele>451.74804863913</ele>
        <time>2016-02-21T12:43:40Z</time>
      </trkpt>
      <trkpt lat="43.77908" lon="3.39251">
        <ele>451.74804863913</ele>
        <time>2016-02-21T12:43:51Z</time>
      </trkpt>
      <trkpt lat="43.77905" lon="3.39256">
        <ele>459.09858594603</ele>
        <time>2016-02-21T12:43:56Z</time>
      </trkpt>
      <trkpt lat="43.77901" lon="3.39264">
        <ele>459.09858594603</ele>
        <time>2016-02-21T12:44:05Z</time>
      </trkpt>
      <trkpt lat="43.77901" lon="3.39266">
        <ele>459.09858594603</ele>
        <time>2016-02-21T12:44:10Z</time>
      </trkpt>
      <trkpt lat="43.77907" lon="3.39272">
        <ele>465.78939765777</ele>
        <time>2016-02-21T12:44:19Z</time>
      </trkpt>
      <trkpt lat="43.77909" lon="3.39276">
        <ele>465.78939765777</ele>
        <time>2016-02-21T12:44:24Z</time>
      </trkpt>
      <trkpt lat="43.77917" lon="3.39279">
        <ele>471.7623124491</ele>
        <time>2016-02-21T12:44:34Z</time>
      </trkpt>
      <trkpt lat="43.77921" lon="3.39281">
        <ele>471.7623124491</ele>
        <time>2016-02-21T12:44:39Z</time>
      </trkpt>
      <trkpt lat="43.77921" lon="3.39285">
        <ele>471.7623124491</ele>
        <time>2016-02-21T12:44:44Z</time>
      </trkpt>
      <trkpt lat="43.77919" lon="3.39291">
        <ele>477.13881769638</ele>
        <time>2016-02-21T12:44:49Z</time>
      </trkpt>
      <trkpt lat="43.77917" lon="3.39293">
        <ele>477.13881769638</ele>
        <time>2016-02-21T12:45:00Z</time>
      </trkpt>
      <trkpt lat="43.77912" lon="3.39302">
        <ele>481.80303020263</ele>
        <time>2016-02-21T12:45:10Z</time>
      </trkpt>
      <trkpt lat="43.77911" lon="3.39302">
        <ele>481.80303020263</ele>
        <time>2016-02-21T12:45:26Z</time>
      </trkpt>
      <trkpt lat="43.77905" lon="3.39308">
        <ele>486.11120434654</ele>
        <time>2016-02-21T12:45:29Z</time>
      </trkpt>
      <trkpt lat="43.7791" lon="3.39319">
        <ele>490.1066769974</ele>
        <time>2016-02-21T12:45:50Z</time>
      </trkpt>
      <trkpt lat="43.7792" lon="3.39319">
        <ele>493.81654350686</ele>
        <time>2016-02-21T12:46:07Z</time>
      </trkpt>
      <trkpt lat="43.77942" lon="3.39373">
        <ele>501.40317865308</ele>
        <time>2016-02-21T12:48:50Z</time>
      </trkpt>
      <trkpt lat="43.77952" lon="3.39383">
        <ele>508.7146280897</ele>
        <time>2016-02-21T12:49:02Z</time>
      </trkpt>
      <trkpt lat="43.77972" lon="3.39396">
        <ele>515.9114901136</ele>
        <time>2016-02-21T12:49:26Z</time>
      </trkpt>
      <trkpt lat="43.77974" lon="3.39398">
        <ele>515.9114901136</ele>
        <time>2016-02-21T12:49:29Z</time>
      </trkpt>
      <trkpt lat="43.77977" lon="3.39398">
        <ele>515.9114901136</ele>
        <time>2016-02-21T12:49:34Z</time>
      </trkpt>
      <trkpt lat="43.7798" lon="3.39433">
        <ele>523.35955711255</ele>
        <time>2016-02-21T12:50:46Z</time>
      </trkpt>
      <trkpt lat="43.77988" lon="3.39453">
        <ele>530.74906440788</ele>
        <time>2016-02-21T12:51:31Z</time>
      </trkpt>
      <trkpt lat="43.78001" lon="3.39486">
        <ele>537.76487516474</ele>
        <time>2016-02-21T12:52:24Z</time>
      </trkpt>
      <trkpt lat="43.77995" lon="3.39526">
        <ele>545.41359202535</ele>
        <time>2016-02-21T12:53:34Z</time>
      </trkpt>
      <trkpt lat="43.77993" lon="3.39547">
        <ele>552.7964343516</ele>
        <time>2016-02-21T12:54:08Z</time>
      </trkpt>
      <trkpt lat="43.78016" lon="3.39566">
        <ele>560.76804694697</ele>
        <time>2016-02-21T12:55:41Z</time>
      </trkpt>
      <trkpt lat="43.78019" lon="3.39573">
        <ele>560.76804694697</ele>
        <time>2016-02-21T12:55:41Z</time>
      </trkpt>
      <trkpt lat="43.78018" lon="3.39583">
        <ele>568.15928868896</ele>
        <time>2016-02-21T12:55:53Z</time>
      </trkpt>
      <trkpt lat="43.78019" lon="3.39607">
        <ele>574.89787046022</ele>
        <time>2016-02-21T12:56:17Z</time>
      </trkpt>
      <trkpt lat="43.78035" lon="3.3963">
        <ele>581.20742608494</ele>
        <time>2016-02-21T12:56:54Z</time>
      </trkpt>
      <trkpt lat="43.78048" lon="3.39642">
        <ele>586.99428421094</ele>
        <time>2016-02-21T12:57:26Z</time>
      </trkpt>
      <trkpt lat="43.7805" lon="3.39644">
        <ele>586.99428421094</ele>
        <time>2016-02-21T12:57:26Z</time>
      </trkpt>
      <trkpt lat="43.78061" lon="3.39648">
        <ele>592.26012790836</ele>
        <time>2016-02-21T12:57:59Z</time>
      </trkpt>
      <trkpt lat="43.78067" lon="3.39655">
        <ele>592.26012790836</ele>
        <time>2016-02-21T12:58:00Z</time>
      </trkpt>
      <trkpt lat="43.78067" lon="3.39665">
        <ele>597.21025706195</ele>
        <time>2016-02-21T12:58:20Z</time>
      </trkpt>
      <trkpt lat="43.78092" lon="3.39681">
        <ele>601.94981163018</ele>
        <time>2016-02-21T12:58:58Z</time>
      </trkpt>
      <trkpt lat="43.78092" lon="3.39688">
        <ele>601.94981163018</ele>
        <time>2016-02-21T12:58:58Z</time>
      </trkpt>
      <trkpt lat="43.78106" lon="3.39736">
        <ele>607.44194589866</ele>
        <time>2016-02-21T12:59:59Z</time>
      </trkpt>
      <trkpt lat="43.78116" lon="3.39729">
        <ele>612.37250572158</ele>
        <time>2016-02-21T13:00:09Z</time>
      </trkpt>
      <trkpt lat="43.7812" lon="3.39726">
        <ele>612.37250572158</ele>
        <time>2016-02-21T13:00:24Z</time>
      </trkpt>
      <trkpt lat="43.78122" lon="3.39722">
        <ele>612.37250572158</ele>
        <time>2016-02-21T13:00:25Z</time>
      </trkpt>
      <trkpt lat="43.78119" lon="3.39722">
        <ele>617.0390492268</ele>
        <time>2016-02-21T13:00:41Z</time>
      </trkpt>
      <trkpt lat="43.78129" lon="3.39721">
        <ele>621.30050269423</ele>
        <time>2016-02-21T13:00:57Z</time>
      </trkpt>
      <trkpt lat="43.78165" lon="3.39743">
        <ele>625.64735366121</ele>
        <time>2016-02-21T13:01:31Z</time>
      </trkpt>
      <trkpt lat="43.78168" lon="3.39755">
        <ele>629.51098669365</ele>
        <time>2016-02-21T13:01:48Z</time>
      </trkpt>
      <trkpt lat="43.78174" lon="3.39759">
        <ele>629.51098669365</ele>
        <time>2016-02-21T13:01:48Z</time>
      </trkpt>
      <trkpt lat="43.78175" lon="3.3976">
        <ele>629.51098669365</ele>
        <time>2016-02-21T13:01:50Z</time>
      </trkpt>
      <trkpt lat="43.78206" lon="3.39762">
        <ele>633.89382068696</ele>
        <time>2016-02-21T13:02:40Z</time>
      </trkpt>
      <trkpt lat="43.78268" lon="3.39746">
        <ele>638.90205232281</ele>
        <time>2016-02-21T13:03:01Z</time>
      </trkpt>
      <trkpt lat="43.78304" lon="3.39733">
        <ele>644.61819478586</ele>
        <time>2016-02-21T13:03:35Z</time>
      </trkpt>
      <trkpt lat="43.7832" lon="3.39722">
        <ele>649.74792162385</ele>
        <time>2016-02-21T13:03:53Z</time>
      </trkpt>
      <trkpt lat="43.78334" lon="3.39724">
        <ele>653.85766690077</ele>
        <time>2016-02-21T13:04:13Z</time>
      </trkpt>
      <trkpt lat="43.78339" lon="3.39724">
        <ele>653.85766690077</ele>
        <time>2016-02-21T13:04:13Z</time>
      </trkpt>
      <trkpt lat="43.78346" lon="3.39724">
        <ele>657.37023631814</ele>
        <time>2016-02-21T13:04:34Z</time>
      </trkpt>
      <trkpt lat="43.78397" lon="3.39714">
        <ele>659.74253330397</ele>
        <time>2016-02-21T13:05:29Z</time>
      </trkpt>
      <trkpt lat="43.78437" lon="3.3968">
        <ele>660.50355172968</ele>
        <time>2016-02-21T13:06:09Z</time>
      </trkpt>
      <trkpt lat="43.78475" lon="3.39618">
        <ele>659.81239695769</ele>
        <time>2016-02-21T13:06:52Z</time>
      </trkpt>
      <trkpt lat="43.78509" lon="3.396">
        <ele>659.04559693888</ele>
        <time>2016-02-21T13:07:26Z</time>
      </trkpt>
      <trkpt lat="43.78549" lon="3.39567">
        <ele>658.38357104503</ele>
        <time>2016-02-21T13:08:28Z</time>
      </trkpt>
      <trkpt lat="43.78579" lon="3.39542">
        <ele>656.66735949608</ele>
        <time>2016-02-21T13:09:17Z</time>
      </trkpt>
      <trkpt lat="43.7859" lon="3.39536">
        <ele>654.742714141</ele>
        <time>2016-02-21T13:09:17Z</time>
      </trkpt>
      <trkpt lat="43.78596" lon="3.39526">
        <ele>652.60112070033</ele>
        <time>2016-02-21T13:09:29Z</time>
      </trkpt>
      <trkpt lat="43.78603" lon="3.39514">
        <ele>650.33601675433</ele>
        <time>2016-02-21T13:09:37Z</time>
      </trkpt>
      <trkpt lat="43.78609" lon="3.39506">
        <ele>650.33601675433</ele>
        <time>2016-02-21T13:09:44Z</time>
      </trkpt>
      <trkpt lat="43.78638" lon="3.39463">
        <ele>648.04852630318</ele>
        <time>2016-02-21T13:10:19Z</time>
      </trkpt>
      <trkpt lat="43.78638" lon="3.39462">
        <ele>648.04852630318</ele>
        <time>2016-02-21T13:10:20Z</time>
      </trkpt>
      <trkpt lat="43.78656" lon="3.39443">
        <ele>645.78892296439</ele>
        <time>2016-02-21T13:11:08Z</time>
      </trkpt>
      <trkpt lat="43.7868" lon="3.39439">
        <ele>643.63223969582</ele>
        <time>2016-02-21T13:11:34Z</time>
      </trkpt>
      <trkpt lat="43.78689" lon="3.39437">
        <ele>643.63223969582</ele>
        <time>2016-02-21T13:11:34Z</time>
      </trkpt>
      <trkpt lat="43.78691" lon="3.39436">
        <ele>641.33033611593</ele>
        <time>2016-02-21T13:11:35Z</time>
      </trkpt>
      <trkpt lat="43.78764" lon="3.39429">
        <ele>640.72855029641</ele>
        <time>2016-02-21T13:13:17Z</time>
      </trkpt>
      <trkpt lat="43.78784" lon="3.39401">
        <ele>640.15931008634</ele>
        <time>2016-02-21T13:13:44Z</time>
      </trkpt>
      <trkpt lat="43.78784" lon="3.39391">
        <ele>640.15931008634</ele>
        <time>2016-02-21T13:14:05Z</time>
      </trkpt>
      <trkpt lat="43.78784" lon="3.39374">
        <ele>639.41728453599</ele>
        <time>2016-02-21T13:14:07Z</time>
      </trkpt>
      <trkpt lat="43.78783" lon="3.39348">
        <ele>638.45640900956</ele>
        <time>2016-02-21T13:14:15Z</time>
      </trkpt>
      <trkpt lat="43.78808" lon="3.39302">
        <ele>637.88269567137</ele>
        <time>2016-02-21T13:15:00Z</time>
      </trkpt>
      <trkpt lat="43.78837" lon="3.39222">
        <ele>637.75173716018</ele>
        <time>2016-02-21T13:16:05Z</time>
      </trkpt>
      <trkpt lat="43.78838" lon="3.39164">
        <ele>637.59456964801</ele>
        <time>2016-02-21T13:16:47Z</time>
      </trkpt>
      <trkpt lat="43.7885" lon="3.39158">
        <ele>637.43747750795</ele>
        <time>2016-02-21T13:16:47Z</time>
      </trkpt>
      <trkpt lat="43.78856" lon="3.39152">
        <ele>637.43747750795</ele>
        <time>2016-02-21T13:16:56Z</time>
      </trkpt>
      <trkpt lat="43.78856" lon="3.39118">
        <ele>637.53496375041</ele>
        <time>2016-02-21T13:17:15Z</time>
      </trkpt>
      <trkpt lat="43.78855" lon="3.39112">
        <ele>637.53496375041</ele>
        <time>2016-02-21T13:17:19Z</time>
      </trkpt>
      <trkpt lat="43.78854" lon="3.39106">
        <ele>637.66054237166</ele>
        <time>2016-02-21T13:17:24Z</time>
      </trkpt>
      <trkpt lat="43.78853" lon="3.39098">
        <ele>637.66054237166</ele>
        <time>2016-02-21T13:17:29Z</time>
      </trkpt>
      <trkpt lat="43.78852" lon="3.39092">
        <ele>637.84885786847</ele>
        <time>2016-02-21T13:17:34Z</time>
      </trkpt>
      <trkpt lat="43.78851" lon="3.39088">
        <ele>637.84885786847</ele>
        <time>2016-02-21T13:17:39Z</time>
      </trkpt>
      <trkpt lat="43.7885" lon="3.39081">
        <ele>637.84885786847</ele>
        <time>2016-02-21T13:17:44Z</time>
      </trkpt>
      <trkpt lat="43.78849" lon="3.39074">
        <ele>638.00172416475</ele>
        <time>2016-02-21T13:17:49Z</time>
      </trkpt>
      <trkpt lat="43.78847" lon="3.3903">
        <ele>637.49465407521</ele>
        <time>2016-02-21T13:18:17Z</time>
      </trkpt>
      <trkpt lat="43.78866" lon="3.38948">
        <ele>635.60637816706</ele>
        <time>2016-02-21T13:19:24Z</time>
      </trkpt>
      <trkpt lat="43.78863" lon="3.38942">
        <ele>635.60637816706</ele>
        <time>2016-02-21T13:19:29Z</time>
      </trkpt>
      <trkpt lat="43.78861" lon="3.38939">
        <ele>635.60637816706</ele>
        <time>2016-02-21T13:19:35Z</time>
      </trkpt>
      <trkpt lat="43.78852" lon="3.38924">
        <ele>634.20844894066</ele>
        <time>2016-02-21T13:19:48Z</time>
      </trkpt>
      <trkpt lat="43.78844" lon="3.38901">
        <ele>632.92914495483</ele>
        <time>2016-02-21T13:20:06Z</time>
      </trkpt>
      <trkpt lat="43.78843" lon="3.3872">
        <ele>632.76356175825</ele>
        <time>2016-02-21T13:21:49Z</time>
      </trkpt>
      <trkpt lat="43.78843" lon="3.38711">
        <ele>632.76356175825</ele>
        <time>2016-02-21T13:21:54Z</time>
      </trkpt>
      <trkpt lat="43.78841" lon="3.387">
        <ele>632.64145047808</ele>
        <time>2016-02-21T13:22:03Z</time>
      </trkpt>
      <trkpt lat="43.78825" lon="3.38644">
        <ele>632.19035850471</ele>
        <time>2016-02-21T13:22:38Z</time>
      </trkpt>
      <trkpt lat="43.78811" lon="3.38593">
        <ele>631.78630237267</ele>
        <time>2016-02-21T13:23:09Z</time>
      </trkpt>
      <trkpt lat="43.78817" lon="3.38558">
        <ele>631.64748667418</ele>
        <time>2016-02-21T13:23:34Z</time>
      </trkpt>
      <trkpt lat="43.78816" lon="3.38557">
        <ele>631.64748667418</ele>
        <time>2016-02-21T13:24:15Z</time>
      </trkpt>
      <trkpt lat="43.78913" lon="3.38447">
        <ele>633.07024411559</ele>
        <time>2016-02-21T13:25:52Z</time>
      </trkpt>
      <trkpt lat="43.78917" lon="3.38438">
        <ele>633.07024411559</ele>
        <time>2016-02-21T13:25:54Z</time>
      </trkpt>
      <trkpt lat="43.78962" lon="3.38324">
        <ele>633.72024719149</ele>
        <time>2016-02-21T13:27:09Z</time>
      </trkpt>
      <trkpt lat="43.78992" lon="3.38155">
        <ele>633.97286021234</ele>
        <time>2016-02-21T13:28:44Z</time>
      </trkpt>
      <trkpt lat="43.78994" lon="3.38144">
        <ele>633.97286021234</ele>
        <time>2016-02-21T13:29:00Z</time>
      </trkpt>
      <trkpt lat="43.78976" lon="3.38116">
        <ele>634.14787327518</ele>
        <time>2016-02-21T13:29:16Z</time>
      </trkpt>
      <trkpt lat="43.78954" lon="3.3805">
        <ele>634.46947178734</ele>
        <time>2016-02-21T13:29:54Z</time>
      </trkpt>
      <trkpt lat="43.78952" lon="3.38039">
        <ele>634.46947178734</ele>
        <time>2016-02-21T13:30:08Z</time>
      </trkpt>
      <trkpt lat="43.78951" lon="3.38025">
        <ele>634.87089035163</ele>
        <time>2016-02-21T13:30:09Z</time>
      </trkpt>
      <trkpt lat="43.78945" lon="3.37979">
        <ele>635.8518336012</ele>
        <time>2016-02-21T13:30:49Z</time>
      </trkpt>
      <trkpt lat="43.78962" lon="3.37875">
        <ele>636.77819968233</ele>
        <time>2016-02-21T13:32:34Z</time>
      </trkpt>
      <trkpt lat="43.78956" lon="3.37843">
        <ele>638.43146726573</ele>
        <time>2016-02-21T13:32:42Z</time>
      </trkpt>
      <trkpt lat="43.78953" lon="3.37815">
        <ele>640.06354535213</ele>
        <time>2016-02-21T13:33:07Z</time>
      </trkpt>
      <trkpt lat="43.78934" lon="3.37757">
        <ele>641.77379961696</ele>
        <time>2016-02-21T13:33:50Z</time>
      </trkpt>
      <trkpt lat="43.78933" lon="3.37752">
        <ele>641.77379961696</ele>
        <time>2016-02-21T13:34:00Z</time>
      </trkpt>
      <trkpt lat="43.7894" lon="3.37712">
        <ele>643.43776320521</ele>
        <time>2016-02-21T13:34:52Z</time>
      </trkpt>
      <trkpt lat="43.78933" lon="3.3768">
        <ele>645.08422762838</ele>
        <time>2016-02-21T13:35:00Z</time>
      </trkpt>
      <trkpt lat="43.78908" lon="3.37622">
        <ele>646.69657913097</ele>
        <time>2016-02-21T13:36:12Z</time>
      </trkpt>
      <trkpt lat="43.78878" lon="3.37551">
        <ele>648.28825494351</ele>
        <time>2016-02-21T13:37:49Z</time>
      </trkpt>
      <trkpt lat="43.78875" lon="3.37551">
        <ele>648.28825494351</ele>
        <time>2016-02-21T13:37:58Z</time>
      </trkpt>
      <trkpt lat="43.78824" lon="3.37533">
        <ele>650.21756048083</ele>
        <time>2016-02-21T13:39:36Z</time>
      </trkpt>
      <trkpt lat="43.78832" lon="3.3746">
        <ele>652.38314750981</ele>
        <time>2016-02-21T13:40:58Z</time>
      </trkpt>
      <trkpt lat="43.78828" lon="3.37457">
        <ele>652.38314750981</ele>
        <time>2016-02-21T13:41:44Z</time>
      </trkpt>
      <trkpt lat="43.78817" lon="3.3746">
        <ele>654.99304925537</ele>
        <time>2016-02-21T13:41:50Z</time>
      </trkpt>
      <trkpt lat="43.78813" lon="3.37457">
        <ele>654.99304925537</ele>
        <time>2016-02-21T13:42:04Z</time>
      </trkpt>
      <trkpt lat="43.78801" lon="3.37459">
        <ele>657.70554365782</ele>
        <time>2016-02-21T13:43:01Z</time>
      </trkpt>
      <trkpt lat="43.788" lon="3.37457">
        <ele>657.70554365782</ele>
        <time>2016-02-21T13:43:49Z</time>
      </trkpt>
      <trkpt lat="43.788" lon="3.37454">
        <ele>657.70554365782</ele>
        <time>2016-02-21T14:29:28Z</time>
      </trkpt>
      <trkpt lat="43.78808" lon="3.37449">
        <ele>660.29019370569</ele>
        <time>2016-02-21T14:30:09Z</time>
      </trkpt>
      <trkpt lat="43.78817" lon="3.37441">
        <ele>662.6347484182</ele>
        <time>2016-02-21T14:30:18Z</time>
      </trkpt>
      <trkpt lat="43.78818" lon="3.3744">
        <ele>662.6347484182</ele>
        <time>2016-02-21T14:30:19Z</time>
      </trkpt>
      <trkpt lat="43.78824" lon="3.37434">
        <ele>662.6347484182</ele>
        <time>2016-02-21T14:30:24Z</time>
      </trkpt>
      <trkpt lat="43.78826" lon="3.3743">
        <ele>664.80884826638</ele>
        <time>2016-02-21T14:30:29Z</time>
      </trkpt>
      <trkpt lat="43.78827" lon="3.37427">
        <ele>664.80884826638</ele>
        <time>2016-02-21T14:30:34Z</time>
      </trkpt>
      <trkpt lat="43.78828" lon="3.37425">
        <ele>664.80884826638</ele>
        <time>2016-02-21T14:30:41Z</time>
      </trkpt>
      <trkpt lat="43.78831" lon="3.37417">
        <ele>666.89196031018</ele>
        <time>2016-02-21T14:30:44Z</time>
      </trkpt>
      <trkpt lat="43.78832" lon="3.3741">
        <ele>666.89196031018</ele>
        <time>2016-02-21T14:30:49Z</time>
      </trkpt>
      <trkpt lat="43.7884" lon="3.37389">
        <ele>668.92921202116</ele>
        <time>2016-02-21T14:31:04Z</time>
      </trkpt>
      <trkpt lat="43.78822" lon="3.37316">
        <ele>671.33730909706</ele>
        <time>2016-02-21T14:32:05Z</time>
      </trkpt>
      <trkpt lat="43.78821" lon="3.37311">
        <ele>671.33730909706</ele>
        <time>2016-02-21T14:33:04Z</time>
      </trkpt>
      <trkpt lat="43.78803" lon="3.37276">
        <ele>673.20438962233</ele>
        <time>2016-02-21T14:33:37Z</time>
      </trkpt>
      <trkpt lat="43.78795" lon="3.37227">
        <ele>674.86889712216</ele>
        <time>2016-02-21T14:34:04Z</time>
      </trkpt>
      <trkpt lat="43.78797" lon="3.37168">
        <ele>675.16073108156</ele>
        <time>2016-02-21T14:34:47Z</time>
      </trkpt>
      <trkpt lat="43.788" lon="3.37168">
        <ele>675.16073108156</ele>
        <time>2016-02-21T14:34:49Z</time>
      </trkpt>
      <trkpt lat="43.78819" lon="3.37177">
        <ele>675.27664719126</ele>
        <time>2016-02-21T14:35:14Z</time>
      </trkpt>
      <trkpt lat="43.78884" lon="3.3717">
        <ele>674.5390909639</ele>
        <time>2016-02-21T14:36:03Z</time>
      </trkpt>
      <trkpt lat="43.78887" lon="3.37127">
        <ele>674.06649757032</ele>
        <time>2016-02-21T14:36:37Z</time>
      </trkpt>
      <trkpt lat="43.78826" lon="3.36958">
        <ele>673.36688480052</ele>
        <time>2016-02-21T14:38:13Z</time>
      </trkpt>
      <trkpt lat="43.78825" lon="3.36954">
        <ele>673.36688480052</ele>
        <time>2016-02-21T14:38:20Z</time>
      </trkpt>
      <trkpt lat="43.78811" lon="3.36899">
        <ele>672.69124213125</ele>
        <time>2016-02-21T14:38:45Z</time>
      </trkpt>
      <trkpt lat="43.7881" lon="3.36893">
        <ele>672.69124213125</ele>
        <time>2016-02-21T14:38:53Z</time>
      </trkpt>
      <trkpt lat="43.78805" lon="3.36874">
        <ele>671.99827780686</ele>
        <time>2016-02-21T14:39:29Z</time>
      </trkpt>
      <trkpt lat="43.78781" lon="3.36773">
        <ele>671.61008146428</ele>
        <time>2016-02-21T14:40:03Z</time>
      </trkpt>
      <trkpt lat="43.78779" lon="3.36763">
        <ele>671.61008146428</ele>
        <time>2016-02-21T14:40:04Z</time>
      </trkpt>
      <trkpt lat="43.78711" lon="3.36693">
        <ele>671.31984786366</ele>
        <time>2016-02-21T14:41:27Z</time>
      </trkpt>
      <trkpt lat="43.78713" lon="3.36655">
        <ele>671.35361108034</ele>
        <time>2016-02-21T14:41:56Z</time>
      </trkpt>
      <trkpt lat="43.78701" lon="3.3663">
        <ele>670.91110514646</ele>
        <time>2016-02-21T14:42:31Z</time>
      </trkpt>
      <trkpt lat="43.78701" lon="3.36628">
        <ele>670.91110514646</ele>
        <time>2016-02-21T14:42:32Z</time>
      </trkpt>
      <trkpt lat="43.78704" lon="3.36608">
        <ele>670.33300483218</ele>
        <time>2016-02-21T14:42:44Z</time>
      </trkpt>
      <trkpt lat="43.78704" lon="3.36602">
        <ele>670.33300483218</ele>
        <time>2016-02-21T14:42:55Z</time>
      </trkpt>
      <trkpt lat="43.78708" lon="3.36574">
        <ele>669.71914928151</ele>
        <time>2016-02-21T14:43:42Z</time>
      </trkpt>
      <trkpt lat="43.78763" lon="3.36426">
        <ele>669.42151343478</ele>
        <time>2016-02-21T14:44:46Z</time>
      </trkpt>
      <trkpt lat="43.78794" lon="3.36395">
        <ele>669.5635369859</ele>
        <time>2016-02-21T14:45:11Z</time>
      </trkpt>
      <trkpt lat="43.78801" lon="3.36388">
        <ele>669.5635369859</ele>
        <time>2016-02-21T14:45:24Z</time>
      </trkpt>
      <trkpt lat="43.78867" lon="3.36262">
        <ele>670.12861787856</ele>
        <time>2016-02-21T14:46:45Z</time>
      </trkpt>
      <trkpt lat="43.7889" lon="3.36239">
        <ele>670.68222251573</ele>
        <time>2016-02-21T14:47:15Z</time>
      </trkpt>
      <trkpt lat="43.78918" lon="3.36218">
        <ele>671.35494064599</ele>
        <time>2016-02-21T14:47:34Z</time>
      </trkpt>
      <trkpt lat="43.79004" lon="3.3612">
        <ele>671.87829646327</ele>
        <time>2016-02-21T14:49:00Z</time>
      </trkpt>
      <trkpt lat="43.79023" lon="3.36091">
        <ele>672.22008652091</ele>
        <time>2016-02-21T14:49:27Z</time>
      </trkpt>
      <trkpt lat="43.79096" lon="3.36056">
        <ele>672.3797711195</ele>
        <time>2016-02-21T14:50:36Z</time>
      </trkpt>
      <trkpt lat="43.79114" lon="3.36053">
        <ele>672.35732845883</ele>
        <time>2016-02-21T14:50:44Z</time>
      </trkpt>
      <trkpt lat="43.79281" lon="3.35932">
        <ele>673.08994026968</ele>
        <time>2016-02-21T14:53:10Z</time>
      </trkpt>
      <trkpt lat="43.79283" lon="3.35892">
        <ele>673.32535980579</ele>
        <time>2016-02-21T14:53:25Z</time>
      </trkpt>
      <trkpt lat="43.79284" lon="3.35856">
        <ele>673.3602160434</ele>
        <time>2016-02-21T14:53:49Z</time>
      </trkpt>
      <trkpt lat="43.79283" lon="3.35856">
        <ele>673.3602160434</ele>
        <time>2016-02-21T14:53:54Z</time>
      </trkpt>
      <trkpt lat="43.79277" lon="3.35853">
        <ele>673.3602160434</ele>
        <time>2016-02-21T14:54:09Z</time>
      </trkpt>
      <trkpt lat="43.79276" lon="3.35853">
        <ele>673.3602160434</ele>
        <time>2016-02-21T14:54:14Z</time>
      </trkpt>
      <trkpt lat="43.79275" lon="3.35853">
        <ele>673.23930139314</ele>
        <time>2016-02-21T14:54:19Z</time>
      </trkpt>
      <trkpt lat="43.79276" lon="3.35849">
        <ele>673.23930139314</ele>
        <time>2016-02-21T14:54:24Z</time>
      </trkpt>
      <trkpt lat="43.79272" lon="3.3584">
        <ele>672.83158927799</ele>
        <time>2016-02-21T14:54:29Z</time>
      </trkpt>
      <trkpt lat="43.79258" lon="3.35829">
        <ele>672.05968077168</ele>
        <time>2016-02-21T14:54:44Z</time>
      </trkpt>
      <trkpt lat="43.79237" lon="3.35809">
        <ele>671.15547759304</ele>
        <time>2016-02-21T14:55:04Z</time>
      </trkpt>
      <trkpt lat="43.79229" lon="3.35786">
        <ele>670.30534891991</ele>
        <time>2016-02-21T14:55:22Z</time>
      </trkpt>
      <trkpt lat="43.79236" lon="3.35699">
        <ele>670.2726261674</ele>
        <time>2016-02-21T14:56:29Z</time>
      </trkpt>
      <trkpt lat="43.79241" lon="3.35684">
        <ele>670.34992907912</ele>
        <time>2016-02-21T14:56:29Z</time>
      </trkpt>
      <trkpt lat="43.79261" lon="3.35533">
        <ele>672.43224653094</ele>
        <time>2016-02-21T14:58:06Z</time>
      </trkpt>
      <trkpt lat="43.79227" lon="3.35502">
        <ele>675.01277922846</ele>
        <time>2016-02-21T14:58:39Z</time>
      </trkpt>
      <trkpt lat="43.79222" lon="3.35499">
        <ele>675.01277922846</ele>
        <time>2016-02-21T14:58:48Z</time>
      </trkpt>
      <trkpt lat="43.79177" lon="3.35466">
        <ele>677.96216428309</ele>
        <time>2016-02-21T14:59:24Z</time>
      </trkpt>
      <trkpt lat="43.79149" lon="3.35417">
        <ele>681.01538149524</ele>
        <time>2016-02-21T14:59:59Z</time>
      </trkpt>
      <trkpt lat="43.7915" lon="3.35394">
        <ele>683.65278307927</ele>
        <time>2016-02-21T15:00:23Z</time>
      </trkpt>
      <trkpt lat="43.79152" lon="3.35382">
        <ele>686.01376542745</ele>
        <time>2016-02-21T15:00:23Z</time>
      </trkpt>
      <trkpt lat="43.79164" lon="3.3536">
        <ele>688.17066007825</ele>
        <time>2016-02-21T15:00:48Z</time>
      </trkpt>
      <trkpt lat="43.79171" lon="3.35351">
        <ele>690.2199383611</ele>
        <time>2016-02-21T15:00:48Z</time>
      </trkpt>
      <trkpt lat="43.79172" lon="3.3535">
        <ele>690.2199383611</ele>
        <time>2016-02-21T15:00:49Z</time>
      </trkpt>
      <trkpt lat="43.7919" lon="3.35336">
        <ele>692.22253428643</ele>
        <time>2016-02-21T15:01:03Z</time>
      </trkpt>
      <trkpt lat="43.79191" lon="3.35335">
        <ele>692.22253428643</ele>
        <time>2016-02-21T15:01:04Z</time>
      </trkpt>
      <trkpt lat="43.79194" lon="3.35331">
        <ele>692.22253428643</ele>
        <time>2016-02-21T15:01:09Z</time>
      </trkpt>
      <trkpt lat="43.79201" lon="3.35326">
        <ele>694.10541527796</ele>
        <time>2016-02-21T15:01:14Z</time>
      </trkpt>
      <trkpt lat="43.79258" lon="3.35196">
        <ele>695.77251286693</ele>
        <time>2016-02-21T15:02:39Z</time>
      </trkpt>
      <trkpt lat="43.79284" lon="3.3517">
        <ele>697.0202223</ele>
        <time>2016-02-21T15:03:05Z</time>
      </trkpt>
      <trkpt lat="43.79315" lon="3.35151">
        <ele>698.59788802372</ele>
        <time>2016-02-21T15:03:50Z</time>
      </trkpt>
      <trkpt lat="43.79333" lon="3.3514">
        <ele>700.39195542804</ele>
        <time>2016-02-21T15:03:58Z</time>
      </trkpt>
      <trkpt lat="43.79351" lon="3.35125">
        <ele>702.5416910629</ele>
        <time>2016-02-21T15:04:23Z</time>
      </trkpt>
      <trkpt lat="43.7936" lon="3.35121">
        <ele>704.77172239611</ele>
        <time>2016-02-21T15:04:23Z</time>
      </trkpt>
      <trkpt lat="43.79374" lon="3.35108">
        <ele>706.98530696628</ele>
        <time>2016-02-21T15:04:35Z</time>
      </trkpt>
      <trkpt lat="43.79445" lon="3.35019">
        <ele>709.72705396927</ele>
        <time>2016-02-21T15:05:29Z</time>
      </trkpt>
      <trkpt lat="43.79482" lon="3.34969">
        <ele>711.84292049672</ele>
        <time>2016-02-21T15:06:12Z</time>
      </trkpt>
      <trkpt lat="43.79489" lon="3.34959">
        <ele>713.57692481258</ele>
        <time>2016-02-21T15:06:19Z</time>
      </trkpt>
      <trkpt lat="43.79498" lon="3.34944">
        <ele>714.82489532536</ele>
        <time>2016-02-21T15:06:24Z</time>
      </trkpt>
      <trkpt lat="43.79508" lon="3.34934">
        <ele>715.67913927222</ele>
        <time>2016-02-21T15:06:29Z</time>
      </trkpt>
      <trkpt lat="43.79514" lon="3.34931">
        <ele>715.67913927222</ele>
        <time>2016-02-21T15:06:34Z</time>
      </trkpt>
      <trkpt lat="43.79514" lon="3.34929">
        <ele>715.67913927222</ele>
        <time>2016-02-21T15:06:39Z</time>
      </trkpt>
      <trkpt lat="43.79516" lon="3.34928">
        <ele>715.95258886021</ele>
        <time>2016-02-21T15:06:44Z</time>
      </trkpt>
      <trkpt lat="43.79519" lon="3.34924">
        <ele>715.95258886021</ele>
        <time>2016-02-21T15:06:49Z</time>
      </trkpt>
      <trkpt lat="43.79531" lon="3.34918">
        <ele>715.83392830246</ele>
        <time>2016-02-21T15:07:03Z</time>
      </trkpt>
      <trkpt lat="43.79534" lon="3.34921">
        <ele>715.83392830246</ele>
        <time>2016-02-21T15:07:05Z</time>
      </trkpt>
      <trkpt lat="43.79542" lon="3.34923">
        <ele>715.41270449207</ele>
        <time>2016-02-21T15:07:14Z</time>
      </trkpt>
      <trkpt lat="43.79564" lon="3.34925">
        <ele>714.59987591563</ele>
        <time>2016-02-21T15:07:29Z</time>
      </trkpt>
      <trkpt lat="43.79586" lon="3.34933">
        <ele>713.27086310017</ele>
        <time>2016-02-21T15:07:49Z</time>
      </trkpt>
      <trkpt lat="43.79618" lon="3.34941">
        <ele>711.67199969917</ele>
        <time>2016-02-21T15:08:14Z</time>
      </trkpt>
      <trkpt lat="43.79646" lon="3.34945">
        <ele>709.93141697617</ele>
        <time>2016-02-21T15:08:34Z</time>
      </trkpt>
      <trkpt lat="43.79679" lon="3.34953">
        <ele>708.35556767659</ele>
        <time>2016-02-21T15:09:00Z</time>
      </trkpt>
      <trkpt lat="43.79696" lon="3.34957">
        <ele>706.66586698878</ele>
        <time>2016-02-21T15:09:16Z</time>
      </trkpt>
      <trkpt lat="43.79754" lon="3.34964">
        <ele>705.05120827355</ele>
        <time>2016-02-21T15:10:00Z</time>
      </trkpt>
      <trkpt lat="43.79775" lon="3.34996">
        <ele>703.39810672664</ele>
        <time>2016-02-21T15:10:22Z</time>
      </trkpt>
      <trkpt lat="43.79795" lon="3.35012">
        <ele>701.99053609806</ele>
        <time>2016-02-21T15:10:45Z</time>
      </trkpt>
      <trkpt lat="43.79805" lon="3.3502">
        <ele>700.74495345321</ele>
        <time>2016-02-21T15:10:49Z</time>
      </trkpt>
      <trkpt lat="43.7986" lon="3.35016">
        <ele>699.92925301851</ele>
        <time>2016-02-21T15:11:41Z</time>
      </trkpt>
      <trkpt lat="43.79891" lon="3.34996">
        <ele>699.18505561842</ele>
        <time>2016-02-21T15:11:59Z</time>
      </trkpt>
      <trkpt lat="43.79953" lon="3.34989">
        <ele>698.65554754628</ele>
        <time>2016-02-21T15:12:44Z</time>
      </trkpt>
      <trkpt lat="43.79959" lon="3.3499">
        <ele>698.65554754628</ele>
        <time>2016-02-21T15:12:49Z</time>
      </trkpt>
      <trkpt lat="43.79967" lon="3.34991">
        <ele>697.88180755762</ele>
        <time>2016-02-21T15:12:54Z</time>
      </trkpt>
      <trkpt lat="43.79975" lon="3.34993">
        <ele>697.88180755762</ele>
        <time>2016-02-21T15:12:59Z</time>
      </trkpt>
      <trkpt lat="43.79979" lon="3.34994">
        <ele>696.90033345107</ele>
        <time>2016-02-21T15:13:04Z</time>
      </trkpt>
      <trkpt lat="43.80015" lon="3.35013">
        <ele>695.41393174941</ele>
        <time>2016-02-21T15:13:34Z</time>
      </trkpt>
      <trkpt lat="43.80026" lon="3.35023">
        <ele>693.88348278001</ele>
        <time>2016-02-21T15:13:45Z</time>
      </trkpt>
      <trkpt lat="43.80087" lon="3.35047">
        <ele>692.90892238981</ele>
        <time>2016-02-21T15:14:36Z</time>
      </trkpt>
      <trkpt lat="43.80095" lon="3.35049">
        <ele>692.90892238981</ele>
        <time>2016-02-21T15:14:44Z</time>
      </trkpt>
      <trkpt lat="43.80113" lon="3.3505">
        <ele>692.72736337477</ele>
        <time>2016-02-21T15:15:00Z</time>
      </trkpt>
      <trkpt lat="43.80164" lon="3.35099">
        <ele>693.36878397248</ele>
        <time>2016-02-21T15:15:56Z</time>
      </trkpt>
      <trkpt lat="43.80195" lon="3.35164">
        <ele>694.15236480584</ele>
        <time>2016-02-21T15:16:50Z</time>
      </trkpt>
      <trkpt lat="43.80201" lon="3.3517">
        <ele>694.15236480584</ele>
        <time>2016-02-21T15:16:50Z</time>
      </trkpt>
      <trkpt lat="43.80325" lon="3.35178">
        <ele>696.69490503567</ele>
        <time>2016-02-21T15:18:56Z</time>
      </trkpt>
      <trkpt lat="43.80328" lon="3.35181">
        <ele>696.69490503567</ele>
        <time>2016-02-21T15:19:05Z</time>
      </trkpt>
      <trkpt lat="43.80335" lon="3.35184">
        <ele>699.08836443697</ele>
        <time>2016-02-21T15:19:05Z</time>
      </trkpt>
      <trkpt lat="43.8039" lon="3.3521">
        <ele>701.69803877842</ele>
        <time>2016-02-21T15:20:00Z</time>
      </trkpt>
      <trkpt lat="43.80398" lon="3.35212">
        <ele>701.69803877842</ele>
        <time>2016-02-21T15:20:00Z</time>
      </trkpt>
      <trkpt lat="43.80469" lon="3.35166">
        <ele>704.86171650452</ele>
        <time>2016-02-21T15:21:11Z</time>
      </trkpt>
      <trkpt lat="43.8049" lon="3.35161">
        <ele>707.80994392497</ele>
        <time>2016-02-21T15:21:19Z</time>
      </trkpt>
      <trkpt lat="43.80496" lon="3.35161">
        <ele>707.80994392497</ele>
        <time>2016-02-21T15:21:24Z</time>
      </trkpt>
      <trkpt lat="43.80502" lon="3.35162">
        <ele>710.24830145307</ele>
        <time>2016-02-21T15:21:29Z</time>
      </trkpt>
      <trkpt lat="43.80506" lon="3.35163">
        <ele>710.24830145307</ele>
        <time>2016-02-21T15:21:34Z</time>
      </trkpt>
      <trkpt lat="43.80537" lon="3.35173">
        <ele>711.96307731918</ele>
        <time>2016-02-21T15:22:02Z</time>
      </trkpt>
      <trkpt lat="43.80545" lon="3.35167">
        <ele>713.37798945078</ele>
        <time>2016-02-21T15:22:04Z</time>
      </trkpt>
      <trkpt lat="43.80555" lon="3.35141">
        <ele>714.857684419</ele>
        <time>2016-02-21T15:22:29Z</time>
      </trkpt>
      <trkpt lat="43.80566" lon="3.35117">
        <ele>716.40842980972</ele>
        <time>2016-02-21T15:22:42Z</time>
      </trkpt>
      <trkpt lat="43.80568" lon="3.35115">
        <ele>716.40842980972</ele>
        <time>2016-02-21T15:22:44Z</time>
      </trkpt>
      <trkpt lat="43.80602" lon="3.35039">
        <ele>719.05907703663</ele>
        <time>2016-02-21T15:23:39Z</time>
      </trkpt>
      <trkpt lat="43.80608" lon="3.35034">
        <ele>719.05907703663</ele>
        <time>2016-02-21T15:23:44Z</time>
      </trkpt>
      <trkpt lat="43.80613" lon="3.35028">
        <ele>721.5549759082</ele>
        <time>2016-02-21T15:23:49Z</time>
      </trkpt>
      <trkpt lat="43.80616" lon="3.35022">
        <ele>721.5549759082</ele>
        <time>2016-02-21T15:24:01Z</time>
      </trkpt>
      <trkpt lat="43.80653" lon="3.35">
        <ele>724.0887955719</ele>
        <time>2016-02-21T15:24:31Z</time>
      </trkpt>
      <trkpt lat="43.80684" lon="3.34984">
        <ele>725.95995231556</ele>
        <time>2016-02-21T15:24:52Z</time>
      </trkpt>
      <trkpt lat="43.80685" lon="3.34983">
        <ele>725.95995231556</ele>
        <time>2016-02-21T15:24:54Z</time>
      </trkpt>
      <trkpt lat="43.80688" lon="3.3498">
        <ele>725.95995231556</ele>
        <time>2016-02-21T15:24:59Z</time>
      </trkpt>
      <trkpt lat="43.80688" lon="3.34979">
        <ele>725.95995231556</ele>
        <time>2016-02-21T15:25:04Z</time>
      </trkpt>
      <trkpt lat="43.80692" lon="3.34978">
        <ele>727.47241384513</ele>
        <time>2016-02-21T15:25:09Z</time>
      </trkpt>
      <trkpt lat="43.80722" lon="3.34924">
        <ele>728.79363616056</ele>
        <time>2016-02-21T15:26:13Z</time>
      </trkpt>
      <trkpt lat="43.80721" lon="3.34889">
        <ele>730.07941369378</ele>
        <time>2016-02-21T15:26:44Z</time>
      </trkpt>
      <trkpt lat="43.80722" lon="3.34885">
        <ele>730.07941369378</ele>
        <time>2016-02-21T15:26:49Z</time>
      </trkpt>
      <trkpt lat="43.80729" lon="3.34853">
        <ele>732.07956736186</ele>
        <time>2016-02-21T15:27:37Z</time>
      </trkpt>
      <trkpt lat="43.80729" lon="3.34842">
        <ele>732.07956736186</ele>
        <time>2016-02-21T15:28:08Z</time>
      </trkpt>
      <trkpt lat="43.80739" lon="3.34783">
        <ele>735.76075263463</ele>
        <time>2016-02-21T15:29:34Z</time>
      </trkpt>
      <trkpt lat="43.80754" lon="3.34767">
        <ele>739.8955814787</ele>
        <time>2016-02-21T15:29:49Z</time>
      </trkpt>
      <trkpt lat="43.80762" lon="3.34765">
        <ele>739.8955814787</ele>
        <time>2016-02-21T15:30:00Z</time>
      </trkpt>
      <trkpt lat="43.80771" lon="3.34752">
        <ele>743.95095170963</ele>
        <time>2016-02-21T15:30:10Z</time>
      </trkpt>
      <trkpt lat="43.80775" lon="3.34746">
        <ele>743.95095170963</ele>
        <time>2016-02-21T15:30:17Z</time>
      </trkpt>
      <trkpt lat="43.80788" lon="3.34726">
        <ele>748.39883508931</ele>
        <time>2016-02-21T15:30:41Z</time>
      </trkpt>
      <trkpt lat="43.8079" lon="3.34719">
        <ele>748.39883508931</ele>
        <time>2016-02-21T15:30:48Z</time>
      </trkpt>
      <trkpt lat="43.80791" lon="3.34718">
        <ele>748.39883508931</ele>
        <time>2016-02-21T15:30:49Z</time>
      </trkpt>
      <trkpt lat="43.80793" lon="3.34716">
        <ele>752.72446079436</ele>
        <time>2016-02-21T15:30:54Z</time>
      </trkpt>
      <trkpt lat="43.80812" lon="3.34672">
        <ele>757.38811926809</ele>
        <time>2016-02-21T15:31:42Z</time>
      </trkpt>
      <trkpt lat="43.80811" lon="3.34652">
        <ele>761.77793700138</ele>
        <time>2016-02-21T15:31:45Z</time>
      </trkpt>
      <trkpt lat="43.80813" lon="3.34575">
        <ele>766.61055930923</ele>
        <time>2016-02-21T15:32:45Z</time>
      </trkpt>
      <trkpt lat="43.80779" lon="3.34476">
        <ele>771.94370695735</ele>
        <time>2016-02-21T15:33:55Z</time>
      </trkpt>
      <trkpt lat="43.80784" lon="3.34445">
        <ele>776.84974381362</ele>
        <time>2016-02-21T15:34:25Z</time>
      </trkpt>
      <trkpt lat="43.80795" lon="3.34411">
        <ele>781.43617660313</ele>
        <time>2016-02-21T15:34:54Z</time>
      </trkpt>
      <trkpt lat="43.80797" lon="3.34363">
        <ele>785.70290064881</ele>
        <time>2016-02-21T15:35:39Z</time>
      </trkpt>
      <trkpt lat="43.80798" lon="3.34335">
        <ele>790.29949192023</ele>
        <time>2016-02-21T15:36:10Z</time>
      </trkpt>
      <trkpt lat="43.80825" lon="3.34196">
        <ele>794.35723023284</ele>
        <time>2016-02-21T15:38:11Z</time>
      </trkpt>
      <trkpt lat="43.80814" lon="3.34192">
        <ele>801.03606737213</ele>
        <time>2016-02-21T15:38:49Z</time>
      </trkpt>
      <trkpt lat="43.80813" lon="3.34192">
        <ele>801.03606737213</ele>
        <time>2016-02-21T15:39:19Z</time>
      </trkpt>
      <trkpt lat="43.80827" lon="3.34163">
        <ele>807.54996727768</ele>
        <time>2016-02-21T15:42:50Z</time>
      </trkpt>
      <trkpt lat="43.80798" lon="3.34221">
        <ele>813.2638229934</ele>
        <time>2016-02-21T15:47:08Z</time>
      </trkpt>
      <trkpt lat="43.80797" lon="3.34222">
        <ele>813.2638229934</ele>
        <time>2016-02-21T15:47:09Z</time>
      </trkpt>
      <trkpt lat="43.80794" lon="3.34223">
        <ele>813.2638229934</ele>
        <time>2016-02-21T15:47:14Z</time>
      </trkpt>
      <trkpt lat="43.80755" lon="3.34211">
        <ele>817.28910621875</ele>
        <time>2016-02-21T15:47:59Z</time>
      </trkpt>
      <trkpt lat="43.80728" lon="3.34201">
        <ele>820.70988170329</ele>
        <time>2016-02-21T15:48:50Z</time>
      </trkpt>
      <trkpt lat="43.8068" lon="3.34197">
        <ele>822.24121971839</ele>
        <time>2016-02-21T15:49:00Z</time>
      </trkpt>
      <trkpt lat="43.80654" lon="3.34217">
        <ele>822.93190011436</ele>
        <time>2016-02-21T15:49:24Z</time>
      </trkpt>
      <trkpt lat="43.80653" lon="3.34217">
        <ele>822.93190011436</ele>
        <time>2016-02-21T15:49:29Z</time>
      </trkpt>
      <trkpt lat="43.80647" lon="3.34217">
        <ele>822.93190011436</ele>
        <time>2016-02-21T15:49:39Z</time>
      </trkpt>
      <trkpt lat="43.80631" lon="3.3423">
        <ele>823.00691073268</ele>
        <time>2016-02-21T15:50:08Z</time>
      </trkpt>
      <trkpt lat="43.80621" lon="3.34234">
        <ele>822.69108863102</ele>
        <time>2016-02-21T15:50:09Z</time>
      </trkpt>
      <trkpt lat="43.80597" lon="3.34253">
        <ele>821.81936292357</ele>
        <time>2016-02-21T15:51:11Z</time>
      </trkpt>
      <trkpt lat="43.80559" lon="3.34288">
        <ele>820.15404218347</ele>
        <time>2016-02-21T15:51:14Z</time>
      </trkpt>
      <trkpt lat="43.80533" lon="3.343">
        <ele>817.86634002701</ele>
        <time>2016-02-21T15:51:52Z</time>
      </trkpt>
      <trkpt lat="43.80481" lon="3.34285">
        <ele>814.77084460327</ele>
        <time>2016-02-21T15:55:37Z</time>
      </trkpt>
      <trkpt lat="43.80481" lon="3.34289">
        <ele>814.77084460327</ele>
        <time>2016-02-21T15:55:39Z</time>
      </trkpt>
      <trkpt lat="43.80487" lon="3.34297">
        <ele>811.7644790163</ele>
        <time>2016-02-21T15:56:00Z</time>
      </trkpt>
      <trkpt lat="43.80414" lon="3.34306">
        <ele>807.97749472281</ele>
        <time>2016-02-21T15:59:27Z</time>
      </trkpt>
      <trkpt lat="43.80423" lon="3.34309">
        <ele>804.16255446423</ele>
        <time>2016-02-21T15:59:39Z</time>
      </trkpt>
      <trkpt lat="43.80424" lon="3.3431">
        <ele>804.16255446423</ele>
        <time>2016-02-21T15:59:44Z</time>
      </trkpt>
      <trkpt lat="43.80424" lon="3.34305">
        <ele>804.16255446423</ele>
        <time>2016-02-21T15:59:59Z</time>
      </trkpt>
      <trkpt lat="43.8044" lon="3.34337">
        <ele>800.41172537686</ele>
        <time>2016-02-21T16:00:49Z</time>
      </trkpt>
      <trkpt lat="43.80475" lon="3.34336">
        <ele>797.15583816752</ele>
        <time>2016-02-21T16:01:36Z</time>
      </trkpt>
      <trkpt lat="43.80488" lon="3.34323">
        <ele>794.17280903943</ele>
        <time>2016-02-21T16:01:52Z</time>
      </trkpt>
      <trkpt lat="43.80513" lon="3.34294">
        <ele>791.7170258782</ele>
        <time>2016-02-21T16:02:19Z</time>
      </trkpt>
      <trkpt lat="43.80516" lon="3.34292">
        <ele>791.7170258782</ele>
        <time>2016-02-21T16:02:20Z</time>
      </trkpt>
      <trkpt lat="43.8052" lon="3.34284">
        <ele>789.50365007447</ele>
        <time>2016-02-21T16:02:58Z</time>
      </trkpt>
      <trkpt lat="43.80518" lon="3.34284">
        <ele>789.50365007447</ele>
        <time>2016-02-21T16:03:42Z</time>
      </trkpt>
      <trkpt lat="43.80515" lon="3.34284">
        <ele>789.50365007447</ele>
        <time>2016-02-21T16:08:59Z</time>
      </trkpt>
      <trkpt lat="43.80516" lon="3.34282">
        <ele>789.50365007447</ele>
        <time>2016-02-21T16:09:04Z</time>
      </trkpt>
      <trkpt lat="43.80515" lon="3.34282">
        <ele>789.50365007447</ele>
        <time>2016-02-21T16:09:16Z</time>
      </trkpt>
      <trkpt lat="43.80513" lon="3.34285">
        <ele>788.24776284904</ele>
        <time>2016-02-21T16:09:35Z</time>
      </trkpt>
      <trkpt lat="43.80512" lon="3.34283">
        <ele>788.24776284904</ele>
        <time>2016-02-21T16:10:30Z</time>
      </trkpt>
      <trkpt lat="43.80516" lon="3.34282">
        <ele>788.24776284904</ele>
        <time>2016-02-21T16:20:20Z</time>
      </trkpt>
      <trkpt lat="43.80517" lon="3.34284">
        <ele>788.24776284904</ele>
        <time>2016-02-21T16:20:39Z</time>
      </trkpt>
      <trkpt lat="43.80519" lon="3.34295">
        <ele>786.83636762856</ele>
        <time>2016-02-21T16:21:52Z</time>
      </trkpt>
      <trkpt lat="43.80521" lon="3.34296">
        <ele>786.83636762856</ele>
        <time>2016-02-21T16:21:54Z</time>
      </trkpt>
      <trkpt lat="43.80615" lon="3.34241">
        <ele>785.88122746401</ele>
        <time>2016-02-21T16:23:54Z</time>
      </trkpt>
      <trkpt lat="43.8062" lon="3.34239">
        <ele>785.88122746401</ele>
        <time>2016-02-21T16:23:59Z</time>
      </trkpt>
      <trkpt lat="43.80633" lon="3.3423">
        <ele>785.140554676</ele>
        <time>2016-02-21T16:24:15Z</time>
      </trkpt>
      <trkpt lat="43.80734" lon="3.34203">
        <ele>786.2916826704</ele>
        <time>2016-02-21T16:25:54Z</time>
      </trkpt>
      <trkpt lat="43.80811" lon="3.34267">
        <ele>788.69263475689</ele>
        <time>2016-02-21T16:27:24Z</time>
      </trkpt>
      <trkpt lat="43.8081" lon="3.34271">
        <ele>788.69263475689</ele>
        <time>2016-02-21T16:27:29Z</time>
      </trkpt>
      <trkpt lat="43.80808" lon="3.34277">
        <ele>788.69263475689</ele>
        <time>2016-02-21T16:27:34Z</time>
      </trkpt>
      <trkpt lat="43.80808" lon="3.34283">
        <ele>790.95219401727</ele>
        <time>2016-02-21T16:27:39Z</time>
      </trkpt>
      <trkpt lat="43.80806" lon="3.34293">
        <ele>790.95219401727</ele>
        <time>2016-02-21T16:27:46Z</time>
      </trkpt>
      <trkpt lat="43.80805" lon="3.34297">
        <ele>792.89113324748</ele>
        <time>2016-02-21T16:27:49Z</time>
      </trkpt>
      <trkpt lat="43.80801" lon="3.34313">
        <ele>794.32964227202</ele>
        <time>2016-02-21T16:28:08Z</time>
      </trkpt>
      <trkpt lat="43.80795" lon="3.34339">
        <ele>795.07348554185</ele>
        <time>2016-02-21T16:28:25Z</time>
      </trkpt>
      <trkpt lat="43.80793" lon="3.34351">
        <ele>795.07348554185</ele>
        <time>2016-02-21T16:28:25Z</time>
      </trkpt>
      <trkpt lat="43.80792" lon="3.34399">
        <ele>794.33917715805</ele>
        <time>2016-02-21T16:29:07Z</time>
      </trkpt>
      <trkpt lat="43.80789" lon="3.3441">
        <ele>794.33917715805</ele>
        <time>2016-02-21T16:29:08Z</time>
      </trkpt>
      <trkpt lat="43.80784" lon="3.34426">
        <ele>792.81702945761</ele>
        <time>2016-02-21T16:29:19Z</time>
      </trkpt>
      <trkpt lat="43.80776" lon="3.34456">
        <ele>790.65868577048</ele>
        <time>2016-02-21T16:29:46Z</time>
      </trkpt>
      <trkpt lat="43.80777" lon="3.34483">
        <ele>788.02064874466</ele>
        <time>2016-02-21T16:29:53Z</time>
      </trkpt>
      <trkpt lat="43.80777" lon="3.34485">
        <ele>788.02064874466</ele>
        <time>2016-02-21T16:29:54Z</time>
      </trkpt>
      <trkpt lat="43.80776" lon="3.34495">
        <ele>788.02064874466</ele>
        <time>2016-02-21T16:30:00Z</time>
      </trkpt>
      <trkpt lat="43.80776" lon="3.34511">
        <ele>785.25081846951</ele>
        <time>2016-02-21T16:30:09Z</time>
      </trkpt>
      <trkpt lat="43.80787" lon="3.34722">
        <ele>780.92794064509</ele>
        <time>2016-02-21T16:32:54Z</time>
      </trkpt>
      <trkpt lat="43.80741" lon="3.34785">
        <ele>775.23803600932</ele>
        <time>2016-02-21T16:33:53Z</time>
      </trkpt>
      <trkpt lat="43.80654" lon="3.34783">
        <ele>769.99989737661</ele>
        <time>2016-02-21T16:35:25Z</time>
      </trkpt>
      <trkpt lat="43.80652" lon="3.34784">
        <ele>769.99989737661</ele>
        <time>2016-02-21T16:35:32Z</time>
      </trkpt>
      <trkpt lat="43.80631" lon="3.34789">
        <ele>763.22231444447</ele>
        <time>2016-02-21T16:35:45Z</time>
      </trkpt>
      <trkpt lat="43.80616" lon="3.34808">
        <ele>756.84005697442</ele>
        <time>2016-02-21T16:36:08Z</time>
      </trkpt>
      <trkpt lat="43.8061" lon="3.34811">
        <ele>756.84005697442</ele>
        <time>2016-02-21T16:36:08Z</time>
      </trkpt>
      <trkpt lat="43.80506" lon="3.34799">
        <ele>748.75329905839</ele>
        <time>2016-02-21T16:37:50Z</time>
      </trkpt>
      <trkpt lat="43.80501" lon="3.34797">
        <ele>748.75329905839</ele>
        <time>2016-02-21T16:37:54Z</time>
      </trkpt>
      <trkpt lat="43.80437" lon="3.34786">
        <ele>739.96072269299</ele>
        <time>2016-02-21T16:38:59Z</time>
      </trkpt>
      <trkpt lat="43.80364" lon="3.34732">
        <ele>730.85598471307</ele>
        <time>2016-02-21T16:40:15Z</time>
      </trkpt>
      <trkpt lat="43.80312" lon="3.34768">
        <ele>721.91951947102</ele>
        <time>2016-02-21T16:41:51Z</time>
      </trkpt>
      <trkpt lat="43.8031" lon="3.34769">
        <ele>721.91951947102</ele>
        <time>2016-02-21T16:41:58Z</time>
      </trkpt>
      <trkpt lat="43.8029" lon="3.34776">
        <ele>713.60990186749</ele>
        <time>2016-02-21T16:42:21Z</time>
      </trkpt>
      <trkpt lat="43.8027" lon="3.34777">
        <ele>705.88856804342</ele>
        <time>2016-02-21T16:42:31Z</time>
      </trkpt>
      <trkpt lat="43.80201" lon="3.34802">
        <ele>698.48699574648</ele>
        <time>2016-02-21T16:43:30Z</time>
      </trkpt>
      <trkpt lat="43.80193" lon="3.34803">
        <ele>698.48699574648</ele>
        <time>2016-02-21T16:43:31Z</time>
      </trkpt>
      <trkpt lat="43.8018" lon="3.3481">
        <ele>691.29902116716</ele>
        <time>2016-02-21T16:43:44Z</time>
      </trkpt>
      <trkpt lat="43.80176" lon="3.34812">
        <ele>691.29902116716</ele>
        <time>2016-02-21T16:43:49Z</time>
      </trkpt>
      <trkpt lat="43.8016" lon="3.34806">
        <ele>684.42684303696</ele>
        <time>2016-02-21T16:44:04Z</time>
      </trkpt>
      <trkpt lat="43.80155" lon="3.34804">
        <ele>684.42684303696</ele>
        <time>2016-02-21T16:44:09Z</time>
      </trkpt>
      <trkpt lat="43.80142" lon="3.34802">
        <ele>678.07895748392</ele>
        <time>2016-02-21T16:44:19Z</time>
      </trkpt>
      <trkpt lat="43.80135" lon="3.34799">
        <ele>678.07895748392</ele>
        <time>2016-02-21T16:44:24Z</time>
      </trkpt>
      <trkpt lat="43.8012" lon="3.348">
        <ele>671.99973040309</ele>
        <time>2016-02-21T16:44:34Z</time>
      </trkpt>
      <trkpt lat="43.80113" lon="3.34801">
        <ele>671.99973040309</ele>
        <time>2016-02-21T16:44:39Z</time>
      </trkpt>
      <trkpt lat="43.80097" lon="3.34801">
        <ele>666.22476925823</ele>
        <time>2016-02-21T16:44:59Z</time>
      </trkpt>
      <trkpt lat="43.8009" lon="3.34801">
        <ele>666.22476925823</ele>
        <time>2016-02-21T16:44:59Z</time>
      </trkpt>
      <trkpt lat="43.80076" lon="3.34805">
        <ele>660.9009152868</ele>
        <time>2016-02-21T16:45:10Z</time>
      </trkpt>
      <trkpt lat="43.80016" lon="3.34808">
        <ele>655.97504003361</ele>
        <time>2016-02-21T16:45:57Z</time>
      </trkpt>
      <trkpt lat="43.79971" lon="3.34815">
        <ele>651.39624542096</ele>
        <time>2016-02-21T16:46:41Z</time>
      </trkpt>
      <trkpt lat="43.79933" lon="3.34823">
        <ele>647.28879676048</ele>
        <time>2016-02-21T16:47:08Z</time>
      </trkpt>
      <trkpt lat="43.79917" lon="3.34828">
        <ele>643.7659978357</ele>
        <time>2016-02-21T16:47:32Z</time>
      </trkpt>
      <trkpt lat="43.79851" lon="3.34805">
        <ele>641.0459957563</ele>
        <time>2016-02-21T16:48:31Z</time>
      </trkpt>
      <trkpt lat="43.79844" lon="3.34795">
        <ele>638.93911076295</ele>
        <time>2016-02-21T16:48:31Z</time>
      </trkpt>
      <trkpt lat="43.79844" lon="3.34794">
        <ele>638.93911076295</ele>
        <time>2016-02-21T16:48:32Z</time>
      </trkpt>
      <trkpt lat="43.79777" lon="3.34708">
        <ele>637.46921968715</ele>
        <time>2016-02-21T16:50:05Z</time>
      </trkpt>
      <trkpt lat="43.79741" lon="3.34685">
        <ele>636.78598680985</ele>
        <time>2016-02-21T16:50:35Z</time>
      </trkpt>
      <trkpt lat="43.79688" lon="3.34634">
        <ele>636.23293632693</ele>
        <time>2016-02-21T16:51:37Z</time>
      </trkpt>
      <trkpt lat="43.79662" lon="3.34586">
        <ele>636.08024834527</ele>
        <time>2016-02-21T16:52:18Z</time>
      </trkpt>
      <trkpt lat="43.79569" lon="3.34558">
        <ele>636.50484349424</ele>
        <time>2016-02-21T16:53:39Z</time>
      </trkpt>
      <trkpt lat="43.79561" lon="3.34552">
        <ele>637.20768556025</ele>
        <time>2016-02-21T16:53:48Z</time>
      </trkpt>
      <trkpt lat="43.79544" lon="3.34538">
        <ele>638.1557767482</ele>
        <time>2016-02-21T16:54:07Z</time>
      </trkpt>
      <trkpt lat="43.79516" lon="3.34527">
        <ele>639.18806582751</ele>
        <time>2016-02-21T16:54:29Z</time>
      </trkpt>
      <trkpt lat="43.79481" lon="3.34536">
        <ele>640.47209794308</ele>
        <time>2016-02-21T16:54:59Z</time>
      </trkpt>
      <trkpt lat="43.79476" lon="3.34522">
        <ele>641.84536174443</ele>
        <time>2016-02-21T16:55:17Z</time>
      </trkpt>
      <trkpt lat="43.79476" lon="3.34521">
        <ele>641.84536174443</ele>
        <time>2016-02-21T16:55:17Z</time>
      </trkpt>
      <trkpt lat="43.79473" lon="3.34515">
        <ele>641.84536174443</ele>
        <time>2016-02-21T16:55:22Z</time>
      </trkpt>
      <trkpt lat="43.79461" lon="3.3446">
        <ele>643.20031140892</ele>
        <time>2016-02-21T16:55:54Z</time>
      </trkpt>
      <trkpt lat="43.79429" lon="3.3438">
        <ele>644.9706491539</ele>
        <time>2016-02-21T16:56:52Z</time>
      </trkpt>
      <trkpt lat="43.79426" lon="3.34371">
        <ele>644.9706491539</ele>
        <time>2016-02-21T16:56:52Z</time>
      </trkpt>
      <trkpt lat="43.79415" lon="3.3436">
        <ele>646.80779781628</ele>
        <time>2016-02-21T16:57:00Z</time>
      </trkpt>
      <trkpt lat="43.79385" lon="3.34311">
        <ele>648.84991476799</ele>
        <time>2016-02-21T16:57:44Z</time>
      </trkpt>
      <trkpt lat="43.79378" lon="3.34303">
        <ele>648.84991476799</ele>
        <time>2016-02-21T16:57:44Z</time>
      </trkpt>
      <trkpt lat="43.79364" lon="3.34296">
        <ele>650.96522782761</ele>
        <time>2016-02-21T16:57:54Z</time>
      </trkpt>
      <trkpt lat="43.79359" lon="3.34293">
        <ele>650.96522782761</ele>
        <time>2016-02-21T16:57:59Z</time>
      </trkpt>
      <trkpt lat="43.79357" lon="3.34291">
        <ele>650.96522782761</ele>
        <time>2016-02-21T16:58:04Z</time>
      </trkpt>
      <trkpt lat="43.79319" lon="3.3427">
        <ele>652.87314378592</ele>
        <time>2016-02-21T16:58:39Z</time>
      </trkpt>
      <trkpt lat="43.7929" lon="3.34263">
        <ele>654.51627472821</ele>
        <time>2016-02-21T16:59:07Z</time>
      </trkpt>
      <trkpt lat="43.79205" lon="3.34189">
        <ele>655.09309255667</ele>
        <time>2016-02-21T17:00:28Z</time>
      </trkpt>
      <trkpt lat="43.79202" lon="3.34174">
        <ele>655.56475007576</ele>
        <time>2016-02-21T17:00:28Z</time>
      </trkpt>
      <trkpt lat="43.79182" lon="3.34157">
        <ele>655.85685544414</ele>
        <time>2016-02-21T17:00:54Z</time>
      </trkpt>
      <trkpt lat="43.79181" lon="3.34152">
        <ele>655.85685544414</ele>
        <time>2016-02-21T17:01:38Z</time>
      </trkpt>
      <trkpt lat="43.78999" lon="3.34184">
        <ele>656.13188200809</ele>
        <time>2016-02-21T17:04:42Z</time>
      </trkpt>
      <trkpt lat="43.78966" lon="3.34176">
        <ele>655.15726963788</ele>
        <time>2016-02-21T17:05:30Z</time>
      </trkpt>
      <trkpt lat="43.78947" lon="3.34186">
        <ele>653.79797132136</ele>
        <time>2016-02-21T17:05:44Z</time>
      </trkpt>
      <trkpt lat="43.78896" lon="3.34215">
        <ele>651.48773564263</ele>
        <time>2016-02-21T17:06:33Z</time>
      </trkpt>
      <trkpt lat="43.78895" lon="3.34216">
        <ele>651.48773564263</ele>
        <time>2016-02-21T17:06:33Z</time>
      </trkpt>
      <trkpt lat="43.78872" lon="3.34219">
        <ele>649.23245262771</ele>
        <time>2016-02-21T17:07:21Z</time>
      </trkpt>
      <trkpt lat="43.78823" lon="3.3424">
        <ele>645.84581202727</ele>
        <time>2016-02-21T17:07:35Z</time>
      </trkpt>
      <trkpt lat="43.78683" lon="3.34263">
        <ele>639.2521196125</ele>
        <time>2016-02-21T17:09:42Z</time>
      </trkpt>
      <trkpt lat="43.78681" lon="3.34262">
        <ele>639.2521196125</ele>
        <time>2016-02-21T17:09:44Z</time>
      </trkpt>
      <trkpt lat="43.78629" lon="3.34261">
        <ele>631.39955265591</ele>
        <time>2016-02-21T17:10:48Z</time>
      </trkpt>
      <trkpt lat="43.78627" lon="3.34258">
        <ele>631.39955265591</ele>
        <time>2016-02-21T17:10:48Z</time>
      </trkpt>
      <trkpt lat="43.78625" lon="3.34258">
        <ele>631.39955265591</ele>
        <time>2016-02-21T17:10:52Z</time>
      </trkpt>
      <trkpt lat="43.78559" lon="3.34256">
        <ele>623.41955688915</ele>
        <time>2016-02-21T17:12:06Z</time>
      </trkpt>
      <trkpt lat="43.78555" lon="3.34256">
        <ele>623.41955688915</ele>
        <time>2016-02-21T17:12:06Z</time>
      </trkpt>
      <trkpt lat="43.78467" lon="3.34251">
        <ele>615.75567257634</ele>
        <time>2016-02-21T17:13:34Z</time>
      </trkpt>
      <trkpt lat="43.7846" lon="3.34248">
        <ele>615.75567257634</ele>
        <time>2016-02-21T17:13:34Z</time>
      </trkpt>
      <trkpt lat="43.7845" lon="3.34246">
        <ele>608.68833608822</ele>
        <time>2016-02-21T17:13:44Z</time>
      </trkpt>
      <trkpt lat="43.78427" lon="3.34238">
        <ele>601.91369099371</ele>
        <time>2016-02-21T17:14:16Z</time>
      </trkpt>
      <trkpt lat="43.78419" lon="3.34235">
        <ele>601.91369099371</ele>
        <time>2016-02-21T17:14:16Z</time>
      </trkpt>
      <trkpt lat="43.78373" lon="3.3419">
        <ele>593.85234872906</ele>
        <time>2016-02-21T17:15:10Z</time>
      </trkpt>
      <trkpt lat="43.78411" lon="3.34316">
        <ele>582.64096039369</ele>
        <time>2016-02-21T17:17:22Z</time>
      </trkpt>
      <trkpt lat="43.78423" lon="3.34339">
        <ele>571.96593498408</ele>
        <time>2016-02-21T17:17:41Z</time>
      </trkpt>
      <trkpt lat="43.78424" lon="3.34342">
        <ele>571.96593498408</ele>
        <time>2016-02-21T17:17:44Z</time>
      </trkpt>
      <trkpt lat="43.78412" lon="3.34366">
        <ele>561.4510714162</ele>
        <time>2016-02-21T17:18:40Z</time>
      </trkpt>
      <trkpt lat="43.78388" lon="3.3436">
        <ele>551.59737721572</ele>
        <time>2016-02-21T17:19:16Z</time>
      </trkpt>
      <trkpt lat="43.78297" lon="3.34295">
        <ele>541.2096381828</ele>
        <time>2016-02-21T17:21:19Z</time>
      </trkpt>
      <trkpt lat="43.78271" lon="3.34276">
        <ele>531.60267727384</ele>
        <time>2016-02-21T17:21:30Z</time>
      </trkpt>
      <trkpt lat="43.78269" lon="3.34274">
        <ele>531.60267727384</ele>
        <time>2016-02-21T17:21:34Z</time>
      </trkpt>
      <trkpt lat="43.78272" lon="3.34275">
        <ele>531.60267727384</ele>
        <time>2016-02-21T17:21:45Z</time>
      </trkpt>
      <trkpt lat="43.78268" lon="3.34273">
        <ele>522.39254171159</ele>
        <time>2016-02-21T17:21:49Z</time>
      </trkpt>
      <trkpt lat="43.78272" lon="3.34272">
        <ele>522.39254171159</ele>
        <time>2016-02-21T17:22:05Z</time>
      </trkpt>
      <trkpt lat="43.78273" lon="3.34273">
        <ele>522.39254171159</ele>
        <time>2016-02-21T17:22:20Z</time>
      </trkpt>
      <trkpt lat="43.78271" lon="3.34273">
        <ele>522.39254171159</ele>
        <time>2016-02-21T17:22:35Z</time>
      </trkpt>
      <trkpt lat="43.78259" lon="3.34278">
        <ele>512.57347266989</ele>
        <time>2016-02-21T17:22:55Z</time>
      </trkpt>
      <trkpt lat="43.7825" lon="3.3428">
        <ele>503.90975760822</ele>
        <time>2016-02-21T17:23:10Z</time>
      </trkpt>
      <trkpt lat="43.78244" lon="3.34278">
        <ele>503.90975760822</ele>
        <time>2016-02-21T17:23:14Z</time>
      </trkpt>
      <trkpt lat="43.78145" lon="3.3418">
        <ele>495.65456230496</ele>
        <time>2016-02-21T17:25:25Z</time>
      </trkpt>
      <trkpt lat="43.78138" lon="3.34174">
        <ele>495.65456230496</ele>
        <time>2016-02-21T17:25:25Z</time>
      </trkpt>
      <trkpt lat="43.78114" lon="3.34159">
        <ele>488.09426835482</ele>
        <time>2016-02-21T17:26:13Z</time>
      </trkpt>
      <trkpt lat="43.78075" lon="3.34159">
        <ele>479.56071544945</ele>
        <time>2016-02-21T17:26:24Z</time>
      </trkpt>
      <trkpt lat="43.78035" lon="3.34179">
        <ele>471.30630258937</ele>
        <time>2016-02-21T17:27:05Z</time>
      </trkpt>
      <trkpt lat="43.77983" lon="3.34214">
        <ele>462.50143830591</ele>
        <time>2016-02-21T17:27:47Z</time>
      </trkpt>
      <trkpt lat="43.77948" lon="3.34261">
        <ele>452.36412774834</ele>
        <time>2016-02-21T17:28:44Z</time>
      </trkpt>
      <trkpt lat="43.77929" lon="3.34266">
        <ele>442.49326454917</ele>
        <time>2016-02-21T17:29:14Z</time>
      </trkpt>
      <trkpt lat="43.77925" lon="3.34271">
        <ele>442.49326454917</ele>
        <time>2016-02-21T17:29:19Z</time>
      </trkpt>
      <trkpt lat="43.77904" lon="3.34299">
        <ele>432.45237070407</ele>
        <time>2016-02-21T17:29:57Z</time>
      </trkpt>
      <trkpt lat="43.77902" lon="3.34299">
        <ele>432.45237070407</ele>
        <time>2016-02-21T17:30:00Z</time>
      </trkpt>
      <trkpt lat="43.7789" lon="3.3431">
        <ele>423.17724313048</ele>
        <time>2016-02-21T17:30:19Z</time>
      </trkpt>
      <trkpt lat="43.77826" lon="3.34349">
        <ele>413.16885773843</ele>
        <time>2016-02-21T17:32:02Z</time>
      </trkpt>
      <trkpt lat="43.77708" lon="3.34332">
        <ele>402.03421882307</ele>
        <time>2016-02-21T17:33:34Z</time>
      </trkpt>
      <trkpt lat="43.77676" lon="3.34311">
        <ele>391.37175278869</ele>
        <time>2016-02-21T17:34:20Z</time>
      </trkpt>
      <trkpt lat="43.77573" lon="3.34304">
        <ele>381.14745155013</ele>
        <time>2016-02-21T17:35:57Z</time>
      </trkpt>
      <trkpt lat="43.77433" lon="3.34435">
        <ele>368.21524248843</ele>
        <time>2016-02-21T17:38:19Z</time>
      </trkpt>
      <trkpt lat="43.77346" lon="3.34566">
        <ele>352.63590098199</ele>
        <time>2016-02-21T17:40:30Z</time>
      </trkpt>
      <trkpt lat="43.77307" lon="3.34599">
        <ele>337.3980543762</ele>
        <time>2016-02-21T17:41:17Z</time>
      </trkpt>
      <trkpt lat="43.77275" lon="3.3469">
        <ele>322.44465902288</ele>
        <time>2016-02-21T17:42:19Z</time>
      </trkpt>
      <trkpt lat="43.77271" lon="3.34705">
        <ele>308.75904565739</ele>
        <time>2016-02-21T17:42:33Z</time>
      </trkpt>
      <trkpt lat="43.7727" lon="3.34704">
        <ele>308.75904565739</ele>
        <time>2016-02-21T17:42:39Z</time>
      </trkpt>
      <trkpt lat="43.77164" lon="3.34603">
        <ele>293.24181776191</ele>
        <time>2016-02-21T17:44:19Z</time>
      </trkpt>
      <trkpt lat="43.77102" lon="3.34572">
        <ele>279.71249124985</ele>
        <time>2016-02-21T17:45:10Z</time>
      </trkpt>
      <trkpt lat="43.77146" lon="3.3464">
        <ele>267.69746131778</ele>
        <time>2016-02-21T17:46:19Z</time>
      </trkpt>
      <trkpt lat="43.77193" lon="3.34751">
        <ele>257.08444626843</ele>
        <time>2016-02-21T17:47:36Z</time>
      </trkpt>
      <trkpt lat="43.77192" lon="3.34759">
        <ele>257.08444626843</ele>
        <time>2016-02-21T17:47:39Z</time>
      </trkpt>
      <trkpt lat="43.77192" lon="3.34764">
        <ele>247.73599177068</ele>
        <time>2016-02-21T17:47:44Z</time>
      </trkpt>
      <trkpt lat="43.77199" lon="3.34789">
        <ele>239.54937345734</ele>
        <time>2016-02-21T17:48:04Z</time>
      </trkpt>
      <trkpt lat="43.77211" lon="3.34808">
        <ele>232.29584573155</ele>
        <time>2016-02-21T17:48:16Z</time>
      </trkpt>
      <trkpt lat="43.77135" lon="3.3482">
        <ele>223.4977344237</ele>
        <time>2016-02-21T17:50:25Z</time>
      </trkpt>
      <trkpt lat="43.77131" lon="3.34829">
        <ele>223.4977344237</ele>
        <time>2016-02-21T17:50:25Z</time>
      </trkpt>
      <trkpt lat="43.77151" lon="3.34857">
        <ele>216.35381742735</ele>
        <time>2016-02-21T17:51:02Z</time>
      </trkpt>
      <trkpt lat="43.7713" lon="3.34834">
        <ele>210.50821732554</ele>
        <time>2016-02-21T17:51:34Z</time>
      </trkpt>
      <trkpt lat="43.77117" lon="3.34832">
        <ele>205.77124096876</ele>
        <time>2016-02-21T17:51:51Z</time>
      </trkpt>
      <trkpt lat="43.76976" lon="3.34879">
        <ele>200.01814330272</ele>
        <time>2016-02-21T17:54:13Z</time>
      </trkpt>
      <trkpt lat="43.76975" lon="3.3488">
        <ele>200.01814330272</ele>
        <time>2016-02-21T17:54:14Z</time>
      </trkpt>
      <trkpt lat="43.76877" lon="3.34922">
        <ele>195.53407241336</ele>
        <time>2016-02-21T17:55:40Z</time>
      </trkpt>
      <trkpt lat="43.76876" lon="3.34922">
        <ele>195.53407241336</ele>
        <time>2016-02-21T17:55:41Z</time>
      </trkpt>
      <trkpt lat="43.76847" lon="3.34915">
        <ele>192.77521283842</ele>
        <time>2016-02-21T17:56:14Z</time>
      </trkpt>
      <trkpt lat="43.76839" lon="3.34914">
        <ele>192.77521283842</ele>
        <time>2016-02-21T17:56:14Z</time>
      </trkpt>
      <trkpt lat="43.7681" lon="3.34911">
        <ele>191.23688993449</ele>
        <time>2016-02-21T17:56:46Z</time>
      </trkpt>
      <trkpt lat="43.76802" lon="3.34907">
        <ele>191.23688993449</ele>
        <time>2016-02-21T17:56:46Z</time>
      </trkpt>
      <trkpt lat="43.76767" lon="3.34892">
        <ele>190.44794728186</ele>
        <time>2016-02-21T17:57:39Z</time>
      </trkpt>
      <trkpt lat="43.7674" lon="3.34839">
        <ele>189.99849907973</ele>
        <time>2016-02-21T17:58:00Z</time>
      </trkpt>
      <trkpt lat="43.76736" lon="3.34815">
        <ele>190.17074153289</ele>
        <time>2016-02-21T17:58:12Z</time>
      </trkpt>
      <trkpt lat="43.76734" lon="3.34812">
        <ele>190.17074153289</ele>
        <time>2016-02-21T17:58:14Z</time>
      </trkpt>
      <trkpt lat="43.76686" lon="3.34649">
        <ele>190.37422643878</ele>
        <time>2016-02-21T18:00:00Z</time>
      </trkpt>
      <trkpt lat="43.76674" lon="3.34602">
        <ele>191.24365977093</ele>
        <time>2016-02-21T18:00:32Z</time>
      </trkpt>
      <trkpt lat="43.76674" lon="3.34601">
        <ele>191.24365977093</ele>
        <time>2016-02-21T18:00:34Z</time>
      </trkpt>
      <trkpt lat="43.76665" lon="3.3457">
        <ele>192.50081174045</ele>
        <time>2016-02-21T18:00:51Z</time>
      </trkpt>
      <trkpt lat="43.76667" lon="3.34563">
        <ele>192.50081174045</ele>
        <time>2016-02-21T18:01:00Z</time>
      </trkpt>
      <trkpt lat="43.76668" lon="3.34536">
        <ele>193.93032686648</ele>
        <time>2016-02-21T18:01:08Z</time>
      </trkpt>
      <trkpt lat="43.76652" lon="3.3445">
        <ele>196.06750624025</ele>
        <time>2016-02-21T18:02:14Z</time>
      </trkpt>
      <trkpt lat="43.76644" lon="3.34449">
        <ele>196.06750624025</ele>
        <time>2016-02-21T18:02:19Z</time>
      </trkpt>
      <trkpt lat="43.76623" lon="3.34449">
        <ele>198.65737915812</ele>
        <time>2016-02-21T18:02:41Z</time>
      </trkpt>
      <trkpt lat="43.76593" lon="3.3443">
        <ele>200.95851790749</ele>
        <time>2016-02-21T18:03:04Z</time>
      </trkpt>
      <trkpt lat="43.76587" lon="3.34417">
        <ele>203.19319585121</ele>
        <time>2016-02-21T18:03:19Z</time>
      </trkpt>
      <trkpt lat="43.76584" lon="3.34407">
        <ele>203.19319585121</ele>
        <time>2016-02-21T18:03:24Z</time>
      </trkpt>
      <trkpt lat="43.76584" lon="3.34391">
        <ele>205.42400881208</ele>
        <time>2016-02-21T18:03:34Z</time>
      </trkpt>
      <trkpt lat="43.76584" lon="3.34384">
        <ele>205.42400881208</ele>
        <time>2016-02-21T18:03:39Z</time>
      </trkpt>
      <trkpt lat="43.76586" lon="3.34376">
        <ele>207.50782831888</ele>
        <time>2016-02-21T18:03:49Z</time>
      </trkpt>
      <trkpt lat="43.76586" lon="3.34372">
        <ele>207.50782831888</ele>
        <time>2016-02-21T18:03:54Z</time>
      </trkpt>
      <trkpt lat="43.76588" lon="3.34361">
        <ele>209.75985362681</ele>
        <time>2016-02-21T18:04:05Z</time>
      </trkpt>
      <trkpt lat="43.76589" lon="3.34354">
        <ele>209.75985362681</ele>
        <time>2016-02-21T18:04:09Z</time>
      </trkpt>
    </trkseg>
  </trk>
</gpx>